Observation data for Stinnett on 01/19/2019      Previous  Date  Next       Current Mesonet Observations  Soil Data  Daily Summary Page  Observations in Plain Language
KST3 190600Z 35028G33KT M01/M03 A3003 RMK A01 T10131029  RH  089%=      5-min Rain = 0
KST3 190601Z 35026G31KT M01/M03 A3003 RMK A01 T10131030  RH  089%=      5-min Rain = 0
KST3 190602Z 35029G36KT M01/M03 A3003 RMK A01 T10141030  RH  089%=      5-min Rain = 0
KST3 190603Z 35032G38KT M01/M03 A3004 RMK A01 T10141030  RH  089%=      5-min Rain = 0
KST3 190604Z 35031G36KT M01/M03 A3004 RMK A01 T10141031  RH  088%=      5-min Rain = 0
KST3 190605Z 35030G36KT M02/M03 A3004 RMK A01 T10151031  RH  088%=      5-min Rain = 0
KST3 190606Z 35029KT M02/M03 A3004 RMK A01 T10151032  RH  088%=      5-min Rain = 0
KST3 190607Z 35027G34KT M02/M03 A3004 RMK A01 T10151033  RH  088%=      5-min Rain = 0
KST3 190608Z 35029G38KT M02/M03 A3004 RMK A01 T10161033  RH  088%=      5-min Rain = 0
KST3 190609Z 35027G34KT M02/M03 A3004 RMK A01 T10161034  RH  088%=      5-min Rain = 0
KST3 190610Z 35028G33KT M02/M03 A3004 RMK A01 T10161034  RH  088%=      5-min Rain = 0
KST3 190611Z 35028G36KT M02/M04 A3004 RMK A01 T10171035  RH  087%=      5-min Rain = 0
KST3 190612Z 35027G34KT M02/M04 A3004 RMK A01 T10181037  RH  087%=      5-min Rain = 0
KST3 190613Z 35032G38KT M02/M04 A3004 RMK A01 T10181037  RH  087%=      5-min Rain = 0
KST3 190614Z 35032G40KT M02/M04 A3004 RMK A01 T10191039  RH  086%=      5-min Rain = 0
KST3 190615Z 35031G36KT M02/M04 A3004 RMK A01 T10191040  RH  086%=      5-min Rain = 0
KST3 190616Z 35031G40KT M02/M04 A3005 RMK A01 T10191040  RH  085%=      5-min Rain = 0
KST3 190617Z 35036G42KT M02/M04 A3005 RMK A01 T10201041  RH  085%=      5-min Rain = 0
KST3 190618Z 35034G40KT M02/M04 A3005 RMK A01 T10201042  RH  085%=      5-min Rain = 0
KST3 190619Z 35032G41KT M02/M04 A3005 RMK A01 T10201042  RH  085%=      5-min Rain = 0
KST3 190620Z 35030G37KT M02/M04 A3005 RMK A01 T10201042  RH  085%=      5-min Rain = 0
KST3 190621Z 35031G36KT M02/M04 A3005 RMK A01 T10211043  RH  085%=      5-min Rain = 0
KST3 190622Z 35029G36KT M02/M04 A3005 RMK A01 T10211043  RH  085%=      5-min Rain = 0
KST3 190623Z 35028G33KT M02/M04 A3005 RMK A01 T10211042  RH  085%=      5-min Rain = 0
KST3 190624Z 35029G34KT M02/M04 A3005 RMK A01 T10221043  RH  085%=      5-min Rain = 0
KST3 190625Z 35034G40KT M02/M04 A3005 RMK A01 T10221043  RH  085%=      5-min Rain = 0
KST3 190626Z 35031KT M02/M04 A3005 RMK A01 T10221044  RH  085%=      5-min Rain = 0
KST3 190627Z 35028G38KT M02/M04 A3005 RMK A01 T10221044  RH  085%=      5-min Rain = 0
KST3 190628Z 35028G34KT M02/M04 A3005 RMK A01 T10221044  RH  085%=      5-min Rain = 0
KST3 190629Z 35028G37KT M02/M04 A3005 RMK A01 T10231044  RH  085%=      5-min Rain = 0
KST3 190630Z 35032G37KT M02/M04 A3006 RMK A01 T10221044  RH  085%=      5-min Rain = 0
KST3 190631Z 35027G34KT M02/M04 A3006 RMK A01 T10221044  RH  085%=      5-min Rain = 0
KST3 190632Z 35029KT M02/M04 A3006 RMK A01 T10231044  RH  085%=      5-min Rain = 0
KST3 190633Z 35030G40KT M02/M04 A3006 RMK A01 T10231044  RH  085%=      5-min Rain = 0
KST3 190634Z 35031G39KT M02/M05 A3006 RMK A01 T10231045  RH  085%=      5-min Rain = 0
KST3 190635Z 35026G32KT M02/M05 A3006 RMK A01 T10231045  RH  085%=      5-min Rain = 0
KST3 190636Z 35024G32KT M02/M05 A3006 RMK A01 T10231045  RH  085%=      5-min Rain = 0
KST3 190637Z 35024G30KT M02/M04 A3006 RMK A01 T10231044  RH  086%=      5-min Rain = 0
KST3 190638Z 35025G34KT M02/M04 A3006 RMK A01 T10241044  RH  086%=      5-min Rain = 0
KST3 190639Z 34028KT M02/M04 A3006 RMK A01 T10241044  RH  086%=      5-min Rain = 0
KST3 190640Z 35028KT M02/M05 A3007 RMK A01 T10241045  RH  086%=      5-min Rain = 0
KST3 190641Z 35032G41KT M02/M05 A3007 RMK A01 T10241045  RH  085%=      5-min Rain = 0
KST3 190642Z 35035G40KT M02/M05 A3007 RMK A01 T10231046  RH  085%=      5-min Rain = 0
KST3 190643Z 35032G38KT M02/M05 A3007 RMK A01 T10231047  RH  084%=      5-min Rain = 0
KST3 190644Z 36029G34KT M02/M05 A3007 RMK A01 T10231047  RH  084%=      5-min Rain = 0
KST3 190645Z 35027G33KT M02/M05 A3007 RMK A01 T10231047  RH  084%=      5-min Rain = 0
KST3 190646Z 35028G33KT M02/M05 A3007 RMK A01 T10241047  RH  084%=      5-min Rain = 0
KST3 190647Z 35030G37KT M02/M05 A3007 RMK A01 T10241047  RH  084%=      5-min Rain = 0
KST3 190648Z 35031KT M02/M05 A3007 RMK A01 T10241048  RH  084%=      5-min Rain = 0
KST3 190649Z 35032KT M02/M05 A3007 RMK A01 T10241048  RH  083%=      5-min Rain = 0
KST3 190650Z 35031KT M02/M05 A3007 RMK A01 T10241049  RH  083%=      5-min Rain = 0
KST3 190651Z 36030G36KT M02/M05 A3007 RMK A01 T10241049  RH  083%=      5-min Rain = 0
KST3 190652Z 35030KT M02/M05 A3007 RMK A01 T10241048  RH  084%=      5-min Rain = 0
KST3 190653Z 35026G34KT M02/M05 A3007 RMK A01 T10241047  RH  084%=      5-min Rain = 0
KST3 190654Z 36028KT M02/M05 A3007 RMK A01 T10241046  RH  084%=      5-min Rain = 0
KST3 190655Z 35026G32KT M02/M05 A3007 RMK A01 T10241046  RH  085%=      5-min Rain = 0
KST3 190656Z 35026KT M02/M05 A3007 RMK A01 T10241045  RH  085%=      5-min Rain = 0
KST3 190657Z 35027KT M02/M05 A3007 RMK A01 T10241045  RH  085%=      5-min Rain = 0
KST3 190658Z 35024G29KT M02/M05 A3007 RMK A01 T10241045  RH  085%=      5-min Rain = 0
KST3 190659Z 35025G31KT M02/M05 A3007 RMK A01 T10241045  RH  085%=      5-min Rain = 0
KST3 190700Z 35027G33KT M02/M05 A3008 RMK A01 T10241045  RH  085%=      5-min Rain = 0
KST3 190701Z 35030G35KT M02/M05 A3007 RMK A01 T10241047  RH  085%=      5-min Rain = 0
KST3 190702Z 35028G33KT M02/M05 A3007 RMK A01 T10241048  RH  084%=      5-min Rain = 0
KST3 190703Z 35027G35KT M02/M05 A3008 RMK A01 T10241048  RH  083%=      5-min Rain = 0
KST3 190704Z 35032G37KT M02/M05 A3008 RMK A01 T10241049  RH  083%=      5-min Rain = 0
KST3 190705Z 35028G37KT M02/M05 A3008 RMK A01 T10241051  RH  082%=      5-min Rain = 0
KST3 190706Z 35031G37KT M03/M05 A3008 RMK A01 T10251052  RH  082%=      5-min Rain = 0
KST3 190707Z 36030KT M03/M05 A3008 RMK A01 T10251052  RH  082%=      5-min Rain = 0
KST3 190708Z 35029G34KT M03/M05 A3008 RMK A01 T10261053  RH  082%=      5-min Rain = 0
KST3 190709Z 35026KT M03/M05 A3008 RMK A01 T10271053  RH  082%=      5-min Rain = 0
KST3 190710Z 35030G38KT M03/M05 A3008 RMK A01 T10271053  RH  082%=      5-min Rain = 0
KST3 190711Z 35028G35KT M03/M05 A3008 RMK A01 T10281054  RH  082%=      5-min Rain = 0
KST3 190712Z 35030G36KT M03/M05 A3008 RMK A01 T10271054  RH  082%=      5-min Rain = 0
KST3 190713Z 35031G37KT M03/M06 A3008 RMK A01 T10281055  RH  082%=      5-min Rain = 0
KST3 190714Z 35025G34KT M03/M06 A3008 RMK A01 T10281056  RH  081%=      5-min Rain = 0
KST3 190715Z 35028KT M03/M06 A3008 RMK A01 T10281056  RH  081%=      5-min Rain = 0
KST3 190716Z 36029KT M03/M06 A3008 RMK A01 T10291056  RH  082%=      5-min Rain = 0
KST3 190717Z 35030KT M03/M06 A3009 RMK A01 T10291056  RH  082%=      5-min Rain = 0
KST3 190718Z 35030G37KT M03/M06 A3009 RMK A01 T10291056  RH  082%=      5-min Rain = 0
KST3 190719Z 35031G36KT M03/M06 A3008 RMK A01 T10291057  RH  081%=      5-min Rain = 0
KST3 190720Z 36028G33KT M03/M06 A3009 RMK A01 T10291057  RH  081%=      5-min Rain = 0
KST3 190721Z 35028G34KT M03/M06 A3009 RMK A01 T10301057  RH  082%=      5-min Rain = 0
KST3 190722Z 35026G37KT M03/M06 A3009 RMK A01 T10301057  RH  082%=      5-min Rain = 0
KST3 190723Z 35028G33KT M03/M06 A3009 RMK A01 T10311057  RH  082%=      5-min Rain = 0
KST3 190724Z 35029G35KT M03/M06 A3009 RMK A01 T10311057  RH  082%=      5-min Rain = 0
KST3 190725Z 35026G33KT M03/M06 A3009 RMK A01 T10311057  RH  082%=      5-min Rain = 0
KST3 190726Z 34026G33KT M03/M06 A3009 RMK A01 T10311057  RH  083%=      5-min Rain = 0
KST3 190727Z 35026G32KT M03/M06 A3009 RMK A01 T10321057  RH  083%=      5-min Rain = 0
KST3 190728Z 35030G37KT M03/M06 A3009 RMK A01 T10321057  RH  083%=      5-min Rain = 0
KST3 190729Z 35029G34KT M03/M06 A3009 RMK A01 T10321057  RH  083%=      5-min Rain = 0
KST3 190730Z 36026G33KT M03/M06 A3009 RMK A01 T10321057  RH  083%=      5-min Rain = 0
KST3 190731Z 36029G35KT M03/M06 A3009 RMK A01 T10321057  RH  083%=      5-min Rain = 0
KST3 190732Z 35030G38KT M03/M06 A3009 RMK A01 T10321057  RH  083%=      5-min Rain = 0
KST3 190733Z 35027KT M03/M06 A3009 RMK A01 T10321058  RH  083%=      5-min Rain = 0
KST3 190734Z 35031G39KT M03/M06 A3009 RMK A01 T10331058  RH  083%=      5-min Rain = 0
KST3 190735Z 35030G35KT M03/M06 A3009 RMK A01 T10331058  RH  083%=      5-min Rain = 0
KST3 190736Z 35031KT M03/M06 A3009 RMK A01 T10331059  RH  083%=      5-min Rain = 0
KST3 190737Z 35029KT M03/M06 A301 RMK A01 T10331059  RH  083%=      5-min Rain = 0
KST3 190738Z 35028G35KT M03/M06 A301 RMK A01 T10341059  RH  083%=      5-min Rain = 0
KST3 190739Z 35030G35KT M03/M06 A301 RMK A01 T10341059  RH  083%=      5-min Rain = 0
KST3 190740Z 35026KT M03/M06 A301 RMK A01 T10341059  RH  083%=      5-min Rain = 0
KST3 190741Z 35027G34KT M03/M06 A301 RMK A01 T10341058  RH  083%=      5-min Rain = 0
KST3 190742Z 35031G37KT M03/M06 A301 RMK A01 T10341059  RH  083%=      5-min Rain = 0
KST3 190743Z 35031G36KT M03/M06 A301 RMK A01 T10341059  RH  083%=      5-min Rain = 0
KST3 190744Z 35030G37KT M04/M06 A301 RMK A01 T10351060  RH  083%=      5-min Rain = 0
KST3 190745Z 35027G32KT M03/M06 A301 RMK A01 T10341059  RH  083%=      5-min Rain = 0
KST3 190746Z 35029KT M03/M06 A3011 RMK A01 T10341059  RH  083%=      5-min Rain = 0
KST3 190747Z 35026G31KT M03/M06 A301 RMK A01 T10341059  RH  083%=      5-min Rain = 0
KST3 190748Z 36029G36KT M04/M06 A301 RMK A01 T10351059  RH  083%=      5-min Rain = 0
KST3 190749Z 35028G33KT M04/M06 A301 RMK A01 T10351059  RH  083%=      5-min Rain = 0
KST3 190750Z 35030G36KT M04/M06 A301 RMK A01 T10351059  RH  083%=      5-min Rain = 0
KST3 190751Z 36027G34KT M04/M06 A301 RMK A01 T10351059  RH  083%=      5-min Rain = 0
KST3 190752Z 35025G31KT M04/M06 A301 RMK A01 T10351059  RH  083%=      5-min Rain = 0
KST3 190753Z 35028G36KT M04/M06 A301 RMK A01 T10351059  RH  084%=      5-min Rain = 0
KST3 190754Z 35029KT M04/M06 A301 RMK A01 T10351059  RH  084%=      5-min Rain = 0
KST3 190755Z 35024KT M04/M06 A301 RMK A01 T10351059  RH  084%=      5-min Rain = 0
KST3 190756Z 35028G36KT M04/M06 A3011 RMK A01 T10351059  RH  084%=      5-min Rain = 0
KST3 190757Z 35029G34KT M04/M06 A3011 RMK A01 T10361059  RH  084%=      5-min Rain = 0
KST3 190758Z 35030KT M04/M06 A301 RMK A01 T10351059  RH  084%=      5-min Rain = 0
KST3 190759Z 36033G42KT M03/M06 A301 RMK A01 T10341059  RH  083%=      5-min Rain = 0
KST3 190800Z 36027G32KT M03/M06 A3011 RMK A01 T10341059  RH  083%=      5-min Rain = 0
KST3 190801Z 00026KT M03/M06 A3011 RMK A01 T10341058  RH  083%=      5-min Rain = 0
KST3 190802Z 36029G41KT M03/M06 A3011 RMK A01 T10341058  RH  084%=      5-min Rain = 0
KST3 190803Z 35028G35KT M03/M06 A301 RMK A01 T10341059  RH  083%=      5-min Rain = 0
KST3 190804Z 35028G34KT M03/M06 A3011 RMK A01 T10341058  RH  083%=      5-min Rain = 0
KST3 190805Z 36027KT M03/M06 A3011 RMK A01 T10341058  RH  083%=      5-min Rain = 0
KST3 190806Z 36027KT M03/M06 A3011 RMK A01 T10341058  RH  083%=      5-min Rain = 0
KST3 190807Z 35026G31KT M03/M06 A3011 RMK A01 T10341058  RH  084%=      5-min Rain = 0
KST3 190808Z 35025G32KT M03/M06 A3011 RMK A01 T10341057  RH  084%=      5-min Rain = 0
KST3 190809Z 35029G35KT M03/M06 A3011 RMK A01 T10341057  RH  084%=      5-min Rain = 0
KST3 190810Z 35025G31KT M03/M06 A3011 RMK A01 T10331057  RH  083%=      5-min Rain = 0
KST3 190811Z 35022G27KT M03/M06 A3011 RMK A01 T10341057  RH  084%=      5-min Rain = 0
KST3 190812Z 35023KT M03/M06 A3011 RMK A01 T10341057  RH  084%=      5-min Rain = 0
KST3 190813Z 36027KT M03/M06 A3011 RMK A01 T10331057  RH  084%=      5-min Rain = 0
KST3 190814Z 35023KT M03/M06 A3011 RMK A01 T10331056  RH  084%=      5-min Rain = 0
KST3 190815Z 35027G32KT M03/M06 A3011 RMK A01 T10331057  RH  084%=      5-min Rain = 0
KST3 190816Z 35026G33KT M03/M06 A3011 RMK A01 T10331057  RH  083%=      5-min Rain = 0
KST3 190817Z 35025G30KT M03/M06 A3011 RMK A01 T10331057  RH  083%=      5-min Rain = 0
KST3 190818Z 35025G32KT M03/M06 A3011 RMK A01 T10331057  RH  083%=      5-min Rain = 0
KST3 190819Z 35026G31KT M03/M06 A3011 RMK A01 T10331057  RH  083%=      5-min Rain = 0
KST3 190820Z 35026G34KT M03/M06 A3011 RMK A01 T10331058  RH  083%=      5-min Rain = 0
KST3 190821Z 35026G34KT M03/M06 A3011 RMK A01 T10331057  RH  083%=      5-min Rain = 0
KST3 190822Z 35022KT M03/M06 A3012 RMK A01 T10331058  RH  083%=      5-min Rain = 0
KST3 190823Z 35021KT M03/M06 A3012 RMK A01 T10331057  RH  083%=      5-min Rain = 0
KST3 190824Z 35020G25KT M03/M06 A3012 RMK A01 T10331057  RH  084%=      5-min Rain = 0
KST3 190825Z 35022G28KT M03/M06 A3012 RMK A01 T10341057  RH  084%=      5-min Rain = 0
KST3 190826Z 35023G28KT M03/M06 A3012 RMK A01 T10341057  RH  084%=      5-min Rain = 0
KST3 190827Z 35024KT M03/M06 A3012 RMK A01 T10341057  RH  084%=      5-min Rain = 0
KST3 190828Z 35024G32KT M03/M06 A3011 RMK A01 T10331057  RH  084%=      5-min Rain = 0
KST3 190829Z 35025KT M03/M06 A3011 RMK A01 T10331057  RH  083%=      5-min Rain = 0
KST3 190830Z 34022G27KT M03/M06 A3012 RMK A01 T10331057  RH  083%=      5-min Rain = 0
KST3 190831Z 35025G30KT M03/M06 A3011 RMK A01 T10331057  RH  083%=      5-min Rain = 0
KST3 190832Z 35025G30KT M03/M06 A3012 RMK A01 T10331057  RH  083%=      5-min Rain = 0
KST3 190833Z 35022G27KT M03/M06 A3012 RMK A01 T10321057  RH  083%=      5-min Rain = 0
KST3 190834Z 35023G29KT M03/M06 A3012 RMK A01 T10331057  RH  083%=      5-min Rain = 0
KST3 190835Z 35020KT M03/M06 A3012 RMK A01 T10331056  RH  084%=      5-min Rain = 0
KST3 190836Z 35020KT M03/M06 A3012 RMK A01 T10331056  RH  084%=      5-min Rain = 0
KST3 190837Z 35022G28KT M03/M06 A3012 RMK A01 T10331055  RH  084%=      5-min Rain = 0
KST3 190838Z 35024KT M03/M06 A3012 RMK A01 T10331056  RH  084%=      5-min Rain = 0
KST3 190839Z 35025KT M03/M06 A3012 RMK A01 T10321056  RH  084%=      5-min Rain = 0
KST3 190840Z 35024KT M03/M06 A3012 RMK A01 T10321056  RH  084%=      5-min Rain = 0
KST3 190841Z 35023G28KT M03/M06 A3012 RMK A01 T10321055  RH  084%=      5-min Rain = 0
KST3 190842Z 35021KT M03/M06 A3012 RMK A01 T10321055  RH  084%=      5-min Rain = 0
KST3 190843Z 35018G23KT M03/M06 A3012 RMK A01 T10321055  RH  084%=      5-min Rain = 0
KST3 190844Z 35018G23KT M03/M06 A3012 RMK A01 T10331055  RH  085%=      5-min Rain = 0
KST3 190845Z 35021G28KT M03/M06 A3012 RMK A01 T10331055  RH  085%=      5-min Rain = 0
KST3 190846Z 35021G26KT M03/M05 A3012 RMK A01 T10331054  RH  085%=      5-min Rain = 0
KST3 190847Z 35018KT M03/M05 A3012 RMK A01 T10331054  RH  085%=      5-min Rain = 0
KST3 190848Z 34020KT M03/M05 A3012 RMK A01 T10331054  RH  085%=      5-min Rain = 0
KST3 190849Z 34023KT M03/M05 A3012 RMK A01 T10331054  RH  085%=      5-min Rain = 0
KST3 190850Z 35019KT M03/M05 A3012 RMK A01 T10331054  RH  086%=      5-min Rain = 0
KST3 190851Z 34019G25KT M03/M05 A3012 RMK A01 T10331054  RH  086%=      5-min Rain = 0
KST3 190852Z 34019KT M03/M05 A3012 RMK A01 T10331053  RH  086%=      5-min Rain = 0
KST3 190853Z 34021G26KT M03/M05 A3012 RMK A01 T10331053  RH  086%=      5-min Rain = 0
KST3 190854Z 34022G27KT M03/M05 A3012 RMK A01 T10321051  RH  086%=      5-min Rain = 0
KST3 190855Z 34021KT M03/M05 A3013 RMK A01 T10311051  RH  086%=      5-min Rain = 0
KST3 190856Z 34021KT M03/M05 A3012 RMK A01 T10311051  RH  086%=      5-min Rain = 0
KST3 190857Z 34020KT M03/M05 A3013 RMK A01 T10311051  RH  086%=      5-min Rain = 0
KST3 190858Z 34024G30KT M03/M05 A3012 RMK A01 T10301051  RH  086%=      5-min Rain = 0
KST3 190859Z 34025G32KT M03/M05 A3012 RMK A01 T10301051  RH  085%=      5-min Rain = 0
KST3 190900Z 34029G36KT M03/M05 A3012 RMK A01 T10291052  RH  085%=      5-min Rain = 0
KST3 190901Z 35028G34KT M03/M05 A3012 RMK A01 T10291052  RH  084%=      5-min Rain = 0
KST3 190902Z 34030KT M03/M05 A3013 RMK A01 T10291053  RH  083%=      5-min Rain = 0
KST3 190903Z 35024G29KT M03/M05 A3013 RMK A01 T10291054  RH  083%=      5-min Rain = 0
KST3 190904Z 34027G35KT M03/M05 A3013 RMK A01 T10291054  RH  083%=      5-min Rain = 0
KST3 190905Z 35027G33KT M03/M05 A3013 RMK A01 T10291054  RH  083%=      5-min Rain = 0
KST3 190906Z 35024G29KT M03/M05 A3013 RMK A01 T10291054  RH  083%=      5-min Rain = 0
KST3 190907Z 35027G34KT M03/M06 A3013 RMK A01 T10301055  RH  083%=      5-min Rain = 0
KST3 190908Z 34028KT M03/M06 A3013 RMK A01 T10301055  RH  083%=      5-min Rain = 0
KST3 190909Z 35026G31KT M03/M06 A3013 RMK A01 T10301055  RH  083%=      5-min Rain = 0
KST3 190910Z 34025G32KT M03/M06 A3013 RMK A01 T10301055  RH  083%=      5-min Rain = 0
KST3 190911Z 34026KT M03/M06 A3013 RMK A01 T10311056  RH  083%=      5-min Rain = 0
KST3 190912Z 35022G30KT M03/M06 A3013 RMK A01 T10311056  RH  083%=      5-min Rain = 0
KST3 190913Z 35024G30KT M03/M06 A3013 RMK A01 T10321056  RH  083%=      5-min Rain = 0
KST3 190914Z 35025KT M03/M06 A3013 RMK A01 T10321056  RH  083%=      5-min Rain = 0
KST3 190915Z 35022G27KT M03/M06 A3014 RMK A01 T10311055  RH  084%=      5-min Rain = 0
KST3 190916Z 35021G26KT M03/M06 A3013 RMK A01 T10321056  RH  084%=      5-min Rain = 0
KST3 190917Z 35028KT M03/M06 A3013 RMK A01 T10321055  RH  084%=      5-min Rain = 0
KST3 190918Z 35024G32KT M03/M06 A3014 RMK A01 T10321055  RH  084%=      5-min Rain = 0
KST3 190919Z 35023G28KT M03/M06 A3014 RMK A01 T10321056  RH  084%=      5-min Rain = 0
KST3 190920Z 35024KT M03/M06 A3014 RMK A01 T10321056  RH  084%=      5-min Rain = 0
KST3 190921Z 35023G30KT M03/M06 A3014 RMK A01 T10321055  RH  084%=      5-min Rain = 0
KST3 190922Z 35023KT M03/M06 A3014 RMK A01 T10321055  RH  084%=      5-min Rain = 0
KST3 190923Z 35028G35KT M03/M06 A3013 RMK A01 T10321055  RH  084%=      5-min Rain = 0
KST3 190924Z 35029G35KT M03/M06 A3013 RMK A01 T10321055  RH  084%=      5-min Rain = 0
KST3 190925Z 35027G34KT M03/M06 A3013 RMK A01 T10321056  RH  084%=      5-min Rain = 0
KST3 190926Z 35028G38KT M03/M06 A3013 RMK A01 T10311056  RH  083%=      5-min Rain = 0
KST3 190927Z 35023G28KT M03/M06 A3014 RMK A01 T10311056  RH  083%=      5-min Rain = 0
KST3 190928Z 34022KT M03/M06 A3013 RMK A01 T10311055  RH  084%=      5-min Rain = 0
KST3 190929Z 35025G32KT M03/M06 A3014 RMK A01 T10321055  RH  084%=      5-min Rain = 0
KST3 190930Z 34026G33KT M03/M06 A3013 RMK A01 T10321055  RH  084%=      5-min Rain = 0
KST3 190931Z 34026G32KT M03/M06 A3013 RMK A01 T10311055  RH  084%=      5-min Rain = 0
KST3 190932Z 34023G30KT M03/M06 A3013 RMK A01 T10311055  RH  084%=      5-min Rain = 0
KST3 190933Z 35022KT M03/M06 A3014 RMK A01 T10321055  RH  084%=      5-min Rain = 0
KST3 190934Z 35022G28KT M03/M06 A3014 RMK A01 T10321055  RH  084%=      5-min Rain = 0
KST3 190935Z 34024KT M03/M06 A3013 RMK A01 T10331055  RH  084%=      5-min Rain = 0
KST3 190936Z 34024G32KT M03/M06 A3013 RMK A01 T10331055  RH  084%=      5-min Rain = 0
KST3 190937Z 34025G30KT M03/M06 A3014 RMK A01 T10321055  RH  084%=      5-min Rain = 0
KST3 190938Z 34025G31KT M03/M06 A3014 RMK A01 T10331056  RH  084%=      5-min Rain = 0
KST3 190939Z 34024KT M03/M06 A3014 RMK A01 T10331056  RH  084%=      5-min Rain = 0
KST3 190940Z 34028G33KT M03/M06 A3014 RMK A01 T10331056  RH  084%=      5-min Rain = 0
KST3 190941Z 34029G34KT M03/M06 A3014 RMK A01 T10331057  RH  084%=      5-min Rain = 0
KST3 190942Z 34027G34KT M03/M06 A3014 RMK A01 T10331057  RH  084%=      5-min Rain = 0
KST3 190943Z 34029KT M03/M06 A3014 RMK A01 T10341057  RH  084%=      5-min Rain = 0
KST3 190944Z 34027G32KT M03/M06 A3014 RMK A01 T10341057  RH  084%=      5-min Rain = 0
KST3 190945Z 35026G32KT M03/M06 A3014 RMK A01 T10341057  RH  084%=      5-min Rain = 0
KST3 190946Z 34023KT M03/M06 A3014 RMK A01 T10341057  RH  084%=      5-min Rain = 0
KST3 190947Z 34022KT M03/M06 A3014 RMK A01 T10341057  RH  084%=      5-min Rain = 0
KST3 190948Z 34023G28KT M04/M06 A3014 RMK A01 T10351057  RH  085%=      5-min Rain = 0
KST3 190949Z 34024KT M04/M06 A3014 RMK A01 T10351057  RH  085%=      5-min Rain = 0
KST3 190950Z 34024G30KT M04/M06 A3014 RMK A01 T10351057  RH  085%=      5-min Rain = 0
KST3 190951Z 34026KT M04/M06 A3015 RMK A01 T10351056  RH  085%=      5-min Rain = 0
KST3 190952Z 34020G27KT M04/M06 A3015 RMK A01 T10351056  RH  085%=      5-min Rain = 0
KST3 190953Z 34027G32KT M04/M06 A3014 RMK A01 T10351056  RH  085%=      5-min Rain = 0
KST3 190954Z 34025G30KT M04/M06 A3015 RMK A01 T10351056  RH  085%=      5-min Rain = 0
KST3 190955Z 34025G32KT M04/M06 A3015 RMK A01 T10351056  RH  085%=      5-min Rain = 0
KST3 190956Z 34022G27KT M04/M06 A3015 RMK A01 T10351057  RH  085%=      5-min Rain = 0
KST3 190957Z 34023G29KT M04/M06 A3015 RMK A01 T10351056  RH  085%=      5-min Rain = 0
KST3 190958Z 34026KT M04/M06 A3015 RMK A01 T10351056  RH  085%=      5-min Rain = 0
KST3 190959Z 34025G30KT M04/M06 A3015 RMK A01 T10351057  RH  085%=      5-min Rain = 0
KST3 191000Z 34024KT M04/M06 A3015 RMK A01 T10351057  RH  085%=      5-min Rain = 0
KST3 191001Z 34021KT M04/M06 A3015 RMK A01 T10351057  RH  085%=      5-min Rain = 0
KST3 191002Z 34023G29KT M04/M06 A3015 RMK A01 T10351057  RH  085%=      5-min Rain = 0
KST3 191003Z 34023G29KT M04/M06 A3015 RMK A01 T10361057  RH  085%=      5-min Rain = 0
KST3 191004Z 34020G26KT M04/M06 A3015 RMK A01 T10361057  RH  085%=      5-min Rain = 0
KST3 191005Z 34024G30KT M04/M06 A3015 RMK A01 T10361057  RH  085%=      5-min Rain = 0
KST3 191006Z 34021G26KT M04/M06 A3015 RMK A01 T10361057  RH  085%=      5-min Rain = 0
KST3 191007Z 34021G27KT M04/M06 A3015 RMK A01 T10361057  RH  085%=      5-min Rain = 0
KST3 191008Z 34022G27KT M04/M06 A3015 RMK A01 T10361057  RH  085%=      5-min Rain = 0
KST3 191009Z 34020KT M04/M06 A3015 RMK A01 T10361057  RH  085%=      5-min Rain = 0
KST3 191010Z 34021KT M04/M06 A3015 RMK A01 T10361056  RH  086%=      5-min Rain = 0
KST3 191011Z 34020KT M04/M06 A3015 RMK A01 T10361056  RH  086%=      5-min Rain = 0
KST3 191012Z 34023G31KT M04/M06 A3015 RMK A01 T10351056  RH  086%=      5-min Rain = 0
KST3 191013Z 34026KT M04/M06 A3015 RMK A01 T10351055  RH  086%=      5-min Rain = 0
KST3 191014Z 34028G34KT M03/M06 A3015 RMK A01 T10341055  RH  085%=      5-min Rain = 0
KST3 191015Z 34023KT M03/M06 A3015 RMK A01 T10341056  RH  085%=      5-min Rain = 0
KST3 191016Z 35019G24KT M03/M06 A3015 RMK A01 T10331055  RH  085%=      5-min Rain = 0
KST3 191017Z 35023KT M03/M06 A3015 RMK A01 T10331055  RH  085%=      5-min Rain = 0
KST3 191018Z 34024KT M03/M06 A3015 RMK A01 T10331055  RH  085%=      5-min Rain = 0
KST3 191019Z 34023KT M03/M06 A3015 RMK A01 T10331055  RH  085%=      5-min Rain = 0
KST3 191020Z 34024G32KT M03/M06 A3015 RMK A01 T10331056  RH  085%=      5-min Rain = 0
KST3 191021Z 34022G27KT M03/M06 A3015 RMK A01 T10341056  RH  085%=      5-min Rain = 0
KST3 191022Z 34021G26KT M03/M06 A3015 RMK A01 T10341056  RH  085%=      5-min Rain = 0
KST3 191023Z 34019KT M03/M06 A3016 RMK A01 T10341056  RH  085%=      5-min Rain = 0
KST3 191024Z 34018G26KT M04/M06 A3016 RMK A01 T10351056  RH  085%=      5-min Rain = 0
KST3 191025Z 34018G23KT M04/M06 A3016 RMK A01 T10351056  RH  085%=      5-min Rain = 0
KST3 191026Z 34019G25KT M04/M06 A3016 RMK A01 T10351056  RH  086%=      5-min Rain = 0
KST3 191027Z 34017G22KT M04/M06 A3016 RMK A01 T10351056  RH  086%=      5-min Rain = 0
KST3 191028Z 34018KT M04/M06 A3016 RMK A01 T10351056  RH  086%=      5-min Rain = 0
KST3 191029Z 34017G24KT M04/M06 A3016 RMK A01 T10351056  RH  086%=      5-min Rain = 0
KST3 191030Z 34018KT M04/M06 A3017 RMK A01 T10351055  RH  086%=      5-min Rain = 0
KST3 191031Z 34018KT M04/M05 A3017 RMK A01 T10351054  RH  086%=      5-min Rain = 0
KST3 191032Z 34019KT M03/M05 A3017 RMK A01 T10341054  RH  086%=      5-min Rain = 0
KST3 191033Z 34019KT M03/M05 A3017 RMK A01 T10341054  RH  086%=      5-min Rain = 0
KST3 191034Z 34018KT M03/M05 A3017 RMK A01 T10341054  RH  086%=      5-min Rain = 0
KST3 191035Z 34017KT M03/M05 A3017 RMK A01 T10341053  RH  086%=      5-min Rain = 0
KST3 191036Z 34015KT M03/M05 A3017 RMK A01 T10331053  RH  086%=      5-min Rain = 0
KST3 191037Z 34019KT M03/M05 A3017 RMK A01 T10331052  RH  087%=      5-min Rain = 0
KST3 191038Z 34015KT M03/M05 A3017 RMK A01 T10341053  RH  087%=      5-min Rain = 0
KST3 191039Z 34014KT M03/M05 A3017 RMK A01 T10341052  RH  087%=      5-min Rain = 0
KST3 191040Z 35016KT M03/M05 A3017 RMK A01 T10341053  RH  087%=      5-min Rain = 0
KST3 191041Z 34016KT M03/M05 A3017 RMK A01 T10341053  RH  087%=      5-min Rain = 0
KST3 191042Z 34017KT M03/M05 A3017 RMK A01 T10331052  RH  087%=      5-min Rain = 0
KST3 191043Z 34017KT M03/M05 A3016 RMK A01 T10331052  RH  086%=      5-min Rain = 0
KST3 191044Z 35017G24KT M03/M05 A3016 RMK A01 T10321052  RH  086%=      5-min Rain = 0
KST3 191045Z 34016KT M03/M05 A3016 RMK A01 T10321052  RH  086%=      5-min Rain = 0
KST3 191046Z 34016KT M03/M05 A3017 RMK A01 T10321052  RH  086%=      5-min Rain = 0
KST3 191047Z 35018KT M03/M05 A3016 RMK A01 T10321052  RH  086%=      5-min Rain = 0
KST3 191048Z 35018KT M03/M05 A3017 RMK A01 T10321052  RH  086%=      5-min Rain = 0
KST3 191049Z 34018KT M03/M05 A3017 RMK A01 T10321052  RH  086%=      5-min Rain = 0
KST3 191050Z 34017G22KT M03/M05 A3017 RMK A01 T10321052  RH  086%=      5-min Rain = 0
KST3 191051Z 34017KT M03/M05 A3017 RMK A01 T10321052  RH  086%=      5-min Rain = 0
KST3 191052Z 35016KT M03/M05 A3017 RMK A01 T10311052  RH  086%=      5-min Rain = 0
KST3 191053Z 34015G20KT M03/M05 A3017 RMK A01 T10311051  RH  086%=      5-min Rain = 0
KST3 191054Z 35016G21KT M03/M05 A3017 RMK A01 T10311051  RH  086%=      5-min Rain = 0
KST3 191055Z 35018KT M03/M05 A3017 RMK A01 T10311051  RH  086%=      5-min Rain = 0
KST3 191056Z 35017KT M03/M05 A3017 RMK A01 T10311051  RH  086%=      5-min Rain = 0
KST3 191057Z 35015KT M03/M05 A3017 RMK A01 T10311051  RH  086%=      5-min Rain = 0
KST3 191058Z 34015KT M03/M05 A3017 RMK A01 T10311051  RH  086%=      5-min Rain = 0
KST3 191059Z 34018KT M03/M05 A3017 RMK A01 T10311051  RH  086%=      5-min Rain = 0
KST3 191100Z 34018KT M03/M05 A3017 RMK A01 T10311051  RH  086%=      5-min Rain = 0
KST3 191101Z 34017KT M03/M05 A3017 RMK A01 T10311051  RH  086%=      5-min Rain = 0
KST3 191102Z 34021G26KT M03/M05 A3017 RMK A01 T10311051  RH  086%=      5-min Rain = 0
KST3 191103Z 34018KT M03/M05 A3017 RMK A01 T10301051  RH  085%=      5-min Rain = 0
KST3 191104Z 34020KT M03/M05 A3017 RMK A01 T10301051  RH  085%=      5-min Rain = 0
KST3 191105Z 34020G25KT M03/M05 A3017 RMK A01 T10301051  RH  085%=      5-min Rain = 0
KST3 191106Z 35015KT M03/M05 A3017 RMK A01 T10301051  RH  085%=      5-min Rain = 0
KST3 191107Z 35015G21KT M03/M05 A3017 RMK A01 T10301051  RH  086%=      5-min Rain = 0
KST3 191108Z 34017KT M03/M05 A3017 RMK A01 T10301051  RH  086%=      5-min Rain = 0
KST3 191109Z 34020KT M03/M05 A3017 RMK A01 T10301051  RH  086%=      5-min Rain = 0
KST3 191110Z 34018KT M03/M05 A3017 RMK A01 T10301051  RH  086%=      5-min Rain = 0
KST3 191111Z 34019KT M03/M05 A3017 RMK A01 T10301051  RH  085%=      5-min Rain = 0
KST3 191112Z 34022KT M03/M05 A3017 RMK A01 T10301051  RH  085%=      5-min Rain = 0
KST3 191113Z 34019KT M03/M05 A3017 RMK A01 T10301051  RH  085%=      5-min Rain = 0
KST3 191114Z 34017KT M03/M05 A3017 RMK A01 T10301051  RH  085%=      5-min Rain = 0
KST3 191115Z 35018G24KT M03/M05 A3017 RMK A01 T10301051  RH  085%=      5-min Rain = 0
KST3 191116Z 34019G24KT M03/M05 A3017 RMK A01 T10301051  RH  085%=      5-min Rain = 0
KST3 191117Z 34019KT M03/M05 A3017 RMK A01 T10301051  RH  085%=      5-min Rain = 0
KST3 191118Z 34021KT M03/M05 A3018 RMK A01 T10301052  RH  085%=      5-min Rain = 0
KST3 191119Z 34020KT M03/M05 A3018 RMK A01 T10301052  RH  085%=      5-min Rain = 0
KST3 191120Z 35020KT M03/M05 A3018 RMK A01 T10301052  RH  085%=      5-min Rain = 0
KST3 191121Z 34019KT M03/M05 A3018 RMK A01 T10301051  RH  085%=      5-min Rain = 0
KST3 191122Z 34019KT M03/M05 A3018 RMK A01 T10301052  RH  085%=      5-min Rain = 0
KST3 191123Z 34019KT M03/M05 A3018 RMK A01 T10301051  RH  085%=      5-min Rain = 0
KST3 191124Z 35020KT M03/M05 A3018 RMK A01 T10311053  RH  085%=      5-min Rain = 0
KST3 191125Z 34019KT M03/M05 A3018 RMK A01 T10311053  RH  085%=      5-min Rain = 0
KST3 191126Z 35023G28KT M03/M05 A3018 RMK A01 T10311053  RH  085%=      5-min Rain = 0
KST3 191127Z 35018KT M03/M05 A3018 RMK A01 T10311053  RH  085%=      5-min Rain = 0
KST3 191128Z 35018KT M03/M05 A3018 RMK A01 T10311053  RH  085%=      5-min Rain = 0
KST3 191129Z 35017KT M03/M05 A3018 RMK A01 T10311053  RH  085%=      5-min Rain = 0
KST3 191130Z 35015G20KT M03/M05 A3018 RMK A01 T10311053  RH  085%=      5-min Rain = 0
KST3 191131Z 34017KT M03/M05 A3018 RMK A01 T10311053  RH  085%=      5-min Rain = 0
KST3 191132Z 35015KT M03/M05 A3019 RMK A01 T10321053  RH  085%=      5-min Rain = 0
KST3 191133Z 35012KT M03/M05 A3019 RMK A01 T10311053  RH  085%=      5-min Rain = 0
KST3 191134Z 34015KT M03/M05 A3019 RMK A01 T10321053  RH  086%=      5-min Rain = 0
KST3 191135Z 34014KT M03/M05 A3019 RMK A01 T10321052  RH  086%=      5-min Rain = 0
KST3 191136Z 35013KT M03/M05 A3019 RMK A01 T10321052  RH  086%=      5-min Rain = 0
KST3 191137Z 34016KT M03/M05 A3019 RMK A01 T10321052  RH  086%=      5-min Rain = 0
KST3 191138Z 34017KT M03/M05 A3019 RMK A01 T10321052  RH  086%=      5-min Rain = 0
KST3 191139Z 35018G23KT M03/M05 A3019 RMK A01 T10321052  RH  086%=      5-min Rain = 0
KST3 191140Z 35015KT M03/M05 A3019 RMK A01 T10321053  RH  086%=      5-min Rain = 0
KST3 191141Z 35013KT M03/M05 A3019 RMK A01 T10321053  RH  086%=      5-min Rain = 0
KST3 191142Z 35016KT M03/M05 A3019 RMK A01 T10321052  RH  086%=      5-min Rain = 0
KST3 191143Z 35013KT M03/M05 A3019 RMK A01 T10321052  RH  086%=      5-min Rain = 0
KST3 191144Z 34014KT M03/M05 A3019 RMK A01 T10321052  RH  086%=      5-min Rain = 0
KST3 191145Z 35012KT M03/M05 A3019 RMK A01 T10321052  RH  086%=      5-min Rain = 0
KST3 191146Z 34013KT M03/M05 A3019 RMK A01 T10321052  RH  086%=      5-min Rain = 0
KST3 191147Z 34013KT M03/M05 A3019 RMK A01 T10321051  RH  087%=      5-min Rain = 0
KST3 191148Z 34013KT M03/M05 A3019 RMK A01 T10321051  RH  087%=      5-min Rain = 0
KST3 191149Z 34012KT M03/M05 A3019 RMK A01 T10321051  RH  087%=      5-min Rain = 0
KST3 191150Z 34010KT M03/M05 A3019 RMK A01 T10311050  RH  087%=      5-min Rain = 0
KST3 191151Z 34010KT M03/M05 A3019 RMK A01 T10321049  RH  087%=      5-min Rain = 0
KST3 191152Z 34012KT M03/M05 A3019 RMK A01 T10321049  RH  088%=      5-min Rain = 0
KST3 191153Z 34013KT M03/M05 A3019 RMK A01 T10321049  RH  088%=      5-min Rain = 0
KST3 191154Z 35015KT M03/M05 A3019 RMK A01 T10311049  RH  087%=      5-min Rain = 0
KST3 191155Z 34019G25KT M03/M05 A3019 RMK A01 T10311050  RH  087%=      5-min Rain = 0
KST3 191156Z 35016KT M03/M05 A3019 RMK A01 T10301050  RH  086%=      5-min Rain = 0
KST3 191157Z 35015KT M03/M05 A3019 RMK A01 T10301050  RH  086%=      5-min Rain = 0
KST3 191158Z 35015KT M03/M05 A3019 RMK A01 T10301050  RH  086%=      5-min Rain = 0
KST3 191159Z 35014KT M03/M05 A3019 RMK A01 T10301050  RH  086%=      5-min Rain = 0
KST3 191200Z 35014KT M03/M05 A3019 RMK A01 T10301050  RH  086%=      5-min Rain = 0
KST3 191201Z 35013KT M03/M05 A3019 RMK A01 T10301050  RH  086%=      5-min Rain = 0
KST3 191202Z 35014KT M03/M05 A3019 RMK A01 T10301050  RH  086%=      5-min Rain = 0
KST3 191203Z 35014KT M03/M05 A302 RMK A01 T10301050  RH  086%=      5-min Rain = 0
KST3 191204Z 35016KT M03/M05 A302 RMK A01 T10301050  RH  086%=      5-min Rain = 0
KST3 191205Z 35015KT M03/M05 A302 RMK A01 T10291049  RH  086%=      5-min Rain = 0
KST3 191206Z 35014KT M03/M05 A302 RMK A01 T10291050  RH  086%=      5-min Rain = 0
KST3 191207Z 34015G21KT M03/M05 A302 RMK A01 T10291050  RH  086%=      5-min Rain = 0
KST3 191208Z 34014KT M03/M05 A302 RMK A01 T10291049  RH  086%=      5-min Rain = 0
KST3 191209Z 35013KT M03/M05 A302 RMK A01 T10301050  RH  086%=      5-min Rain = 0
KST3 191210Z 34013KT M03/M05 A302 RMK A01 T10291049  RH  086%=      5-min Rain = 0
KST3 191211Z 35015KT M03/M05 A302 RMK A01 T10291049  RH  086%=      5-min Rain = 0
KST3 191212Z 35016KT M03/M05 A302 RMK A01 T10291049  RH  086%=      5-min Rain = 0
KST3 191213Z 35014KT M03/M05 A302 RMK A01 T10291049  RH  086%=      5-min Rain = 0
KST3 191214Z 34014KT M03/M05 A302 RMK A01 T10291049  RH  086%=      5-min Rain = 0
KST3 191215Z 35013KT M03/M05 A302 RMK A01 T10291049  RH  086%=      5-min Rain = 0
KST3 191216Z 35013KT M03/M05 A302 RMK A01 T10291049  RH  086%=      5-min Rain = 0
KST3 191217Z 35012KT M03/M05 A302 RMK A01 T10291049  RH  086%=      5-min Rain = 0
KST3 191218Z 35013KT M03/M05 A302 RMK A01 T10291049  RH  087%=      5-min Rain = 0
KST3 191219Z 34011KT M03/M05 A302 RMK A01 T10291049  RH  087%=      5-min Rain = 0
KST3 191220Z 35011KT M03/M05 A302 RMK A01 T10301049  RH  087%=      5-min Rain = 0
KST3 191221Z 35012KT M03/M05 A302 RMK A01 T10291048  RH  087%=      5-min Rain = 0
KST3 191222Z 34010KT M03/M05 A302 RMK A01 T10291048  RH  087%=      5-min Rain = 0
KST3 191223Z 35012KT M03/M05 A302 RMK A01 T10291048  RH  087%=      5-min Rain = 0
KST3 191224Z 34011KT M03/M05 A302 RMK A01 T10291048  RH  087%=      5-min Rain = 0
KST3 191225Z 35011KT M03/M05 A302 RMK A01 T10291048  RH  087%=      5-min Rain = 0
KST3 191226Z 35011KT M03/M05 A302 RMK A01 T10291048  RH  087%=      5-min Rain = 0
KST3 191227Z 35013KT M03/M05 A302 RMK A01 T10291048  RH  087%=      5-min Rain = 0
KST3 191228Z 35012KT M03/M05 A302 RMK A01 T10291048  RH  087%=      5-min Rain = 0
KST3 191229Z 34015KT M03/M05 A302 RMK A01 T10291048  RH  086%=      5-min Rain = 0
KST3 191230Z 34012KT M03/M05 A3021 RMK A01 T10281049  RH  086%=      5-min Rain = 0
KST3 191231Z 35011KT M03/M05 A3021 RMK A01 T10281048  RH  086%=      5-min Rain = 0
KST3 191232Z 35011KT M03/M05 A3021 RMK A01 T10281047  RH  086%=      5-min Rain = 0
KST3 191233Z 35012G17KT M03/M05 A3021 RMK A01 T10281047  RH  087%=      5-min Rain = 0
KST3 191234Z 35014KT M03/M05 A3021 RMK A01 T10281047  RH  087%=      5-min Rain = 0
KST3 191235Z 34014KT M03/M05 A3021 RMK A01 T10281048  RH  086%=      5-min Rain = 0
KST3 191236Z 34018KT M03/M05 A3021 RMK A01 T10281048  RH  086%=      5-min Rain = 0
KST3 191237Z 35017G22KT M03/M05 A3021 RMK A01 T10281048  RH  086%=      5-min Rain = 0
KST3 191238Z 34018G26KT M03/M05 A3021 RMK A01 T10281049  RH  085%=      5-min Rain = 0
KST3 191239Z 35023G30KT M03/M05 A3021 RMK A01 T10281049  RH  085%=      5-min Rain = 0
KST3 191240Z 36022KT M03/M05 A3021 RMK A01 T10271050  RH  085%=      5-min Rain = 0
KST3 191241Z 36021G26KT M03/M05 A3021 RMK A01 T10281050  RH  084%=      5-min Rain = 0
KST3 191242Z 36018KT M03/M05 A3021 RMK A01 T10281051  RH  084%=      5-min Rain = 0
KST3 191243Z 35018KT M03/M05 A3021 RMK A01 T10281050  RH  085%=      5-min Rain = 0
KST3 191244Z 35017G23KT M03/M05 A3021 RMK A01 T10281050  RH  085%=      5-min Rain = 0
KST3 191245Z 00021G26KT M03/M05 A3021 RMK A01 T10281050  RH  085%=      5-min Rain = 0
KST3 191246Z 36019KT M03/M05 A3021 RMK A01 T10291051  RH  085%=      5-min Rain = 0
KST3 191247Z 36017KT M03/M05 A3021 RMK A01 T10291050  RH  085%=      5-min Rain = 0
KST3 191248Z 36019KT M03/M05 A3021 RMK A01 T10291050  RH  085%=      5-min Rain = 0
KST3 191249Z 35016G21KT M03/M05 A3022 RMK A01 T10291050  RH  085%=      5-min Rain = 0
KST3 191250Z 36014KT M03/M05 A3022 RMK A01 T10291050  RH  085%=      5-min Rain = 0
KST3 191251Z 36015KT M03/M05 A3022 RMK A01 T10291049  RH  086%=      5-min Rain = 0
KST3 191252Z 36015KT M03/M05 A3022 RMK A01 T10291049  RH  086%=      5-min Rain = 0
KST3 191253Z 35017KT M03/M05 A3022 RMK A01 T10291048  RH  086%=      5-min Rain = 0
KST3 191254Z 35016G21KT M03/M05 A3022 RMK A01 T10291049  RH  086%=      5-min Rain = 0
KST3 191255Z 35014KT M03/M05 A3022 RMK A01 T10291050  RH  086%=      5-min Rain = 0
KST3 191256Z 35017KT M03/M05 A3022 RMK A01 T10291049  RH  086%=      5-min Rain = 0
KST3 191257Z 35016KT M03/M05 A3022 RMK A01 T10291050  RH  086%=      5-min Rain = 0
KST3 191258Z 35015KT M03/M05 A3022 RMK A01 T10291049  RH  086%=      5-min Rain = 0
KST3 191259Z 36017KT M03/M05 A3022 RMK A01 T10291049  RH  086%=      5-min Rain = 0
KST3 191300Z 36015KT M03/M05 A3022 RMK A01 T10291049  RH  086%=      5-min Rain = 0
KST3 191301Z 35016KT M03/M05 A3022 RMK A01 T10291048  RH  086%=      5-min Rain = 0
KST3 191302Z 36018KT M03/M05 A3022 RMK A01 T10291048  RH  086%=      5-min Rain = 0
KST3 191303Z 36017KT M03/M05 A3022 RMK A01 T10291049  RH  086%=      5-min Rain = 0
KST3 191304Z 35017KT M03/M05 A3022 RMK A01 T10291049  RH  086%=      5-min Rain = 0
KST3 191305Z 35017KT M03/M05 A3022 RMK A01 T10291049  RH  086%=      5-min Rain = 0
KST3 191306Z 35015KT M03/M05 A3022 RMK A01 T10291049  RH  086%=      5-min Rain = 0
KST3 191307Z 35015KT M03/M05 A3023 RMK A01 T10291049  RH  086%=      5-min Rain = 0
KST3 191308Z 35015G20KT M03/M05 A3023 RMK A01 T10291049  RH  086%=      5-min Rain = 0
KST3 191309Z 35014KT M03/M05 A3023 RMK A01 T10291049  RH  086%=      5-min Rain = 0
KST3 191310Z 35016KT M03/M05 A3023 RMK A01 T10291049  RH  086%=      5-min Rain = 0
KST3 191311Z 35018KT M03/M05 A3023 RMK A01 T10291049  RH  086%=      5-min Rain = 0
KST3 191312Z 36016KT M03/M05 A3023 RMK A01 T10291050  RH  085%=      5-min Rain = 0
KST3 191313Z 35014KT M03/M05 A3023 RMK A01 T10291050  RH  085%=      5-min Rain = 0
KST3 191314Z 35014KT M03/M05 A3023 RMK A01 T10291049  RH  086%=      5-min Rain = 0
KST3 191315Z 35013KT M03/M05 A3023 RMK A01 T10291049  RH  086%=      5-min Rain = 0
KST3 191316Z 35018G23KT M03/M05 A3023 RMK A01 T10291049  RH  086%=      5-min Rain = 0
KST3 191317Z 36015KT M03/M05 A3023 RMK A01 T10291049  RH  086%=      5-min Rain = 0
KST3 191318Z 36015KT M03/M05 A3023 RMK A01 T10291049  RH  086%=      5-min Rain = 0
KST3 191319Z 35017KT M03/M05 A3023 RMK A01 T10291049  RH  086%=      5-min Rain = 0
KST3 191320Z 36017KT M03/M05 A3023 RMK A01 T10291050  RH  086%=      5-min Rain = 0
KST3 191321Z 35018G23KT M03/M05 A3023 RMK A01 T10291050  RH  086%=      5-min Rain = 0
KST3 191322Z 35020G26KT M03/M05 A3023 RMK A01 T10291050  RH  085%=      5-min Rain = 0
KST3 191323Z 35019KT M03/M05 A3023 RMK A01 T10291051  RH  085%=      5-min Rain = 0
KST3 191324Z 36021KT M03/M05 A3023 RMK A01 T10291051  RH  085%=      5-min Rain = 0
KST3 191325Z 36020KT M03/M05 A3023 RMK A01 T10291051  RH  085%=      5-min Rain = 0
KST3 191326Z 36018G24KT M03/M05 A3023 RMK A01 T10291051  RH  085%=      5-min Rain = 0
KST3 191327Z 35020G25KT M03/M05 A3024 RMK A01 T10291051  RH  085%=      5-min Rain = 0
KST3 191328Z 36019KT M03/M05 A3024 RMK A01 T10291051  RH  085%=      5-min Rain = 0
KST3 191329Z 36018KT M03/M05 A3024 RMK A01 T10291050  RH  085%=      5-min Rain = 0
KST3 191330Z 35018G24KT M03/M05 A3024 RMK A01 T10291050  RH  085%=      5-min Rain = 0
KST3 191331Z 35017G23KT M03/M05 A3024 RMK A01 T10291051  RH  085%=      5-min Rain = 0
KST3 191332Z 35018KT M03/M05 A3024 RMK A01 T10291050  RH  085%=      5-min Rain = 0
KST3 191333Z 35018KT M03/M05 A3024 RMK A01 T10291050  RH  085%=      5-min Rain = 0
KST3 191334Z 35015KT M03/M05 A3024 RMK A01 T10291050  RH  085%=      5-min Rain = 0
KST3 191335Z 35015KT M03/M05 A3024 RMK A01 T10301050  RH  086%=      5-min Rain = 0
KST3 191336Z 36017KT M03/M05 A3024 RMK A01 T10291050  RH  086%=      5-min Rain = 0
KST3 191337Z 35017KT M03/M05 A3024 RMK A01 T10291050  RH  086%=      5-min Rain = 0
KST3 191338Z 35016G21KT M03/M05 A3024 RMK A01 T10291050  RH  086%=      5-min Rain = 0
KST3 191339Z 35014KT M03/M05 A3024 RMK A01 T10291050  RH  086%=      5-min Rain = 0
KST3 191340Z 35015KT M03/M05 A3024 RMK A01 T10291050  RH  086%=      5-min Rain = 0
KST3 191341Z 36015KT M03/M05 A3024 RMK A01 T10291050  RH  086%=      5-min Rain = 0
KST3 191342Z 35016KT M03/M05 A3024 RMK A01 T10291050  RH  086%=      5-min Rain = 0
KST3 191343Z 35018KT M03/M05 A3024 RMK A01 T10291050  RH  086%=      5-min Rain = 0
KST3 191344Z 35017KT M03/M05 A3024 RMK A01 T10291050  RH  086%=      5-min Rain = 0
KST3 191345Z 35014KT M03/M05 A3024 RMK A01 T10291050  RH  085%=      5-min Rain = 0
KST3 191346Z 36014KT M03/M05 A3024 RMK A01 T10291049  RH  086%=      5-min Rain = 0
KST3 191347Z 35016KT M03/M05 A3024 RMK A01 T10291049  RH  086%=      5-min Rain = 0
KST3 191348Z 35016KT M03/M05 A3024 RMK A01 T10291049  RH  086%=      5-min Rain = 0
KST3 191349Z 35017KT M03/M05 A3024 RMK A01 T10291049  RH  086%=      5-min Rain = 0
KST3 191350Z 35016KT M03/M05 A3024 RMK A01 T10281050  RH  085%=      5-min Rain = 0
KST3 191351Z 35013KT M03/M05 A3025 RMK A01 T10281049  RH  085%=      5-min Rain = 0
KST3 191352Z 36013KT M03/M05 A3025 RMK A01 T10281048  RH  086%=      5-min Rain = 0
KST3 191353Z 35014G19KT M03/M05 A3025 RMK A01 T10281048  RH  086%=      5-min Rain = 0
KST3 191354Z 35016KT M03/M05 A3025 RMK A01 T10281048  RH  086%=      5-min Rain = 0
KST3 191355Z 36016KT M03/M05 A3025 RMK A01 T10281048  RH  086%=      5-min Rain = 0
KST3 191356Z 36015KT M03/M05 A3025 RMK A01 T10281049  RH  086%=      5-min Rain = 0
KST3 191357Z 36014KT M03/M05 A3025 RMK A01 T10281049  RH  086%=      5-min Rain = 0
KST3 191358Z 36013KT M03/M05 A3025 RMK A01 T10281048  RH  086%=      5-min Rain = 0
KST3 191359Z 34012KT M03/M05 A3025 RMK A01 T10281048  RH  087%=      5-min Rain = 0
KST3 191400Z 35013KT M03/M05 A3025 RMK A01 T10281047  RH  087%=      5-min Rain = 0
KST3 191401Z 35012KT M03/M05 A3025 RMK A01 T10281048  RH  086%=      5-min Rain = 0
KST3 191402Z 36012KT M03/M05 A3025 RMK A01 T10281048  RH  086%=      5-min Rain = 0
KST3 191403Z 36016KT M03/M05 A3025 RMK A01 T10281048  RH  086%=      5-min Rain = 0
KST3 191404Z 36013KT M03/M05 A3025 RMK A01 T10281048  RH  086%=      5-min Rain = 0
KST3 191405Z 35015KT M03/M05 A3025 RMK A01 T10281048  RH  086%=      5-min Rain = 0
KST3 191406Z 35014KT M03/M05 A3025 RMK A01 T10281048  RH  086%=      5-min Rain = 0
KST3 191407Z 36013KT M03/M05 A3025 RMK A01 T10281049  RH  086%=      5-min Rain = 0
KST3 191408Z 00013G19KT M03/M05 A3025 RMK A01 T10281048  RH  086%=      5-min Rain = 0
KST3 191409Z 36015KT M03/M05 A3025 RMK A01 T10281048  RH  086%=      5-min Rain = 0
KST3 191410Z 36014KT M03/M05 A3026 RMK A01 T10281048  RH  086%=      5-min Rain = 0
KST3 191411Z 36014KT M03/M05 A3026 RMK A01 T10281048  RH  086%=      5-min Rain = 0
KST3 191412Z 35015KT M03/M05 A3026 RMK A01 T10281048  RH  086%=      5-min Rain = 0
KST3 191413Z 00015KT M03/M05 A3026 RMK A01 T10281048  RH  086%=      5-min Rain = 0
KST3 191414Z 00012KT M03/M05 A3026 RMK A01 T10281049  RH  086%=      5-min Rain = 0
KST3 191415Z 00014KT M03/M05 A3026 RMK A01 T10281048  RH  086%=      5-min Rain = 0
KST3 191416Z 00011KT M03/M05 A3026 RMK A01 T10281048  RH  086%=      5-min Rain = 0
KST3 191417Z 00012KT M03/M05 A3026 RMK A01 T10281047  RH  087%=      5-min Rain = 0
KST3 191418Z 00015KT M03/M05 A3026 RMK A01 T10281047  RH  087%=      5-min Rain = 0
KST3 191419Z 00012KT M03/M05 A3026 RMK A01 T10281047  RH  087%=      5-min Rain = 0
KST3 191420Z 00012KT M03/M05 A3026 RMK A01 T10281047  RH  087%=      5-min Rain = 0
KST3 191421Z 36012KT M03/M05 A3026 RMK A01 T10281047  RH  087%=      5-min Rain = 0
KST3 191422Z 00012KT M03/M05 A3026 RMK A01 T10281047  RH  087%=      5-min Rain = 0
KST3 191423Z 01011KT M03/M05 A3026 RMK A01 T10281047  RH  087%=      5-min Rain = 0
KST3 191424Z 01013KT M03/M05 A3026 RMK A01 T10281047  RH  087%=      5-min Rain = 0
KST3 191425Z 01012KT M03/M05 A3026 RMK A01 T10281047  RH  087%=      5-min Rain = 0
KST3 191426Z 01011KT M03/M05 A3027 RMK A01 T10281047  RH  087%=      5-min Rain = 0
KST3 191427Z 01011KT M03/M05 A3027 RMK A01 T10281047  RH  087%=      5-min Rain = 0
KST3 191428Z 01012KT M03/M05 A3027 RMK A01 T10281046  RH  087%=      5-min Rain = 0
KST3 191429Z 02012KT M03/M05 A3027 RMK A01 T10291047  RH  087%=      5-min Rain = 0
KST3 191430Z 01010KT M03/M05 A3027 RMK A01 T10281047  RH  087%=      5-min Rain = 0
KST3 191431Z 00009KT M03/M05 A3027 RMK A01 T10281046  RH  088%=      5-min Rain = 0
KST3 191432Z 00009KT M03/M05 A3027 RMK A01 T10291046  RH  088%=      5-min Rain = 0
KST3 191433Z 01010KT M03/M05 A3027 RMK A01 T10291046  RH  088%=      5-min Rain = 0
KST3 191434Z 02010KT M03/M05 A3027 RMK A01 T10291046  RH  088%=      5-min Rain = 0
KST3 191435Z 01008KT M03/M05 A3027 RMK A01 T10281045  RH  088%=      5-min Rain = 0
KST3 191436Z 00010KT M03/M05 A3028 RMK A01 T10281045  RH  088%=      5-min Rain = 0
KST3 191437Z 36011KT M03/M05 A3028 RMK A01 T10281045  RH  088%=      5-min Rain = 0
KST3 191438Z 01011KT M03/M05 A3028 RMK A01 T10281046  RH  087%=      5-min Rain = 0
KST3 191439Z 02013KT M03/M05 A3028 RMK A01 T10281047  RH  087%=      5-min Rain = 0
KST3 191440Z 00011KT M03/M05 A3028 RMK A01 T10291047  RH  087%=      5-min Rain = 0
KST3 191441Z 01011KT M03/M05 A3028 RMK A01 T10291047  RH  087%=      5-min Rain = 0
KST3 191442Z 01011KT M03/M05 A3028 RMK A01 T10291047  RH  087%=      5-min Rain = 0
KST3 191443Z 36013KT M03/M05 A3028 RMK A01 T10291048  RH  087%=      5-min Rain = 0
KST3 191444Z 36013KT M03/M05 A3028 RMK A01 T10291048  RH  087%=      5-min Rain = 0
KST3 191445Z 00013KT M03/M05 A3028 RMK A01 T10291049  RH  087%=      5-min Rain = 0
KST3 191446Z 36013KT M03/M05 A3028 RMK A01 T10291048  RH  087%=      5-min Rain = 0
KST3 191447Z 01012KT M03/M05 A3028 RMK A01 T10291048  RH  087%=      5-min Rain = 0
KST3 191448Z 35014KT M03/M05 A3028 RMK A01 T10291048  RH  087%=      5-min Rain = 0
KST3 191449Z 00013KT M03/M05 A3028 RMK A01 T10291049  RH  087%=      5-min Rain = 0
KST3 191450Z 00014KT M03/M05 A3028 RMK A01 T10291049  RH  087%=      5-min Rain = 0
KST3 191451Z 01014KT M03/M05 A3028 RMK A01 T10291048  RH  087%=      5-min Rain = 0
KST3 191452Z 01014KT M03/M05 A3028 RMK A01 T10291048  RH  087%=      5-min Rain = 0
KST3 191453Z 00015KT M03/M05 A3028 RMK A01 T10291049  RH  087%=      5-min Rain = 0
KST3 191454Z 01013KT M03/M05 A3028 RMK A01 T10291049  RH  087%=      5-min Rain = 0
KST3 191455Z 02011KT M03/M05 A3029 RMK A01 T10291048  RH  087%=      5-min Rain = 0
KST3 191456Z 02013KT M03/M05 A3029 RMK A01 T10301048  RH  087%=      5-min Rain = 0
KST3 191457Z 02013KT M03/M05 A3029 RMK A01 T10301049  RH  087%=      5-min Rain = 0
KST3 191458Z 01013KT M03/M05 A3029 RMK A01 T10301049  RH  087%=      5-min Rain = 0
KST3 191459Z 01014KT M03/M05 A3029 RMK A01 T10301049  RH  087%=      5-min Rain = 0
KST3 191500Z 01012KT M03/M05 A3029 RMK A01 T10301049  RH  087%=      5-min Rain = 0
KST3 191501Z 01013KT M03/M05 A3029 RMK A01 T10301049  RH  087%=      5-min Rain = 0
KST3 191502Z 01013KT M03/M05 A3029 RMK A01 T10301049  RH  087%=      5-min Rain = 0
KST3 191503Z 00011KT M03/M05 A3029 RMK A01 T10301049  RH  087%=      5-min Rain = 0
KST3 191504Z 01011KT M03/M05 A3029 RMK A01 T10301049  RH  087%=      5-min Rain = 0
KST3 191505Z 01013KT M03/M05 A3029 RMK A01 T10301048  RH  087%=      5-min Rain = 0
KST3 191506Z 01014KT M03/M05 A3029 RMK A01 T10301049  RH  087%=      5-min Rain = 0
KST3 191507Z 01014KT M03/M05 A3029 RMK A01 T10301049  RH  087%=      5-min Rain = 0
KST3 191508Z 01014KT M03/M05 A3029 RMK A01 T10301049  RH  087%=      5-min Rain = 0
KST3 191509Z 01015KT M03/M05 A3029 RMK A01 T10301049  RH  087%=      5-min Rain = 0
KST3 191510Z 01013KT M03/M05 A3029 RMK A01 T10311049  RH  087%=      5-min Rain = 0
KST3 191511Z 01014KT M03/M05 A3029 RMK A01 T10311049  RH  087%=      5-min Rain = 0
KST3 191512Z 02012KT M03/M05 A3029 RMK A01 T10311049  RH  087%=      5-min Rain = 0
KST3 191513Z 01014KT M03/M05 A3029 RMK A01 T10301048  RH  087%=      5-min Rain = 0
KST3 191514Z 01014KT M03/M05 A3029 RMK A01 T10311049  RH  087%=      5-min Rain = 0
KST3 191515Z 01012KT M03/M05 A3029 RMK A01 T10311049  RH  087%=      5-min Rain = 0
KST3 191516Z 01015KT M03/M05 A3029 RMK A01 T10311048  RH  088%=      5-min Rain = 0
KST3 191517Z 01016KT M03/M05 A3029 RMK A01 T10311049  RH  088%=      5-min Rain = 0
KST3 191518Z 00017KT M03/M05 A3029 RMK A01 T10311049  RH  088%=      5-min Rain = 0
KST3 191519Z 00018KT M03/M05 A3029 RMK A01 T10311049  RH  087%=      5-min Rain = 0
KST3 191520Z 01018KT M03/M05 A303 RMK A01 T10311049  RH  087%=      5-min Rain = 0
KST3 191521Z 01017KT M03/M05 A303 RMK A01 T10311049  RH  087%=      5-min Rain = 0
KST3 191522Z 01016KT M03/M05 A303 RMK A01 T10321050  RH  087%=      5-min Rain = 0
KST3 191523Z 01018KT M03/M05 A303 RMK A01 T10311049  RH  087%=      5-min Rain = 0
KST3 191524Z 00017KT M03/M05 A303 RMK A01 T10321049  RH  088%=      5-min Rain = 0
KST3 191525Z 36016KT M03/M05 A303 RMK A01 T10321049  RH  088%=      5-min Rain = 0
KST3 191526Z 35016KT M03/M05 A303 RMK A01 T10321050  RH  087%=      5-min Rain = 0
KST3 191527Z 36017KT M03/M05 A303 RMK A01 T10311049  RH  087%=      5-min Rain = 0
KST3 191528Z 00014KT M03/M05 A303 RMK A01 T10321050  RH  088%=      5-min Rain = 0
KST3 191529Z 00013G19KT M03/M05 A303 RMK A01 T10321049  RH  088%=      5-min Rain = 0
KST3 191530Z 01016KT M03/M05 A303 RMK A01 T10311048  RH  088%=      5-min Rain = 0
KST3 191531Z 36017KT M03/M05 A303 RMK A01 T10321049  RH  088%=      5-min Rain = 0
KST3 191532Z 35016KT M03/M05 A303 RMK A01 T10321049  RH  088%=      5-min Rain = 0
KST3 191533Z 36014KT M03/M05 A303 RMK A01 T10311049  RH  088%=      5-min Rain = 0
KST3 191534Z 36014KT M03/M05 A303 RMK A01 T10311048  RH  088%=      5-min Rain = 0
KST3 191535Z 36015KT M03/M05 A303 RMK A01 T10311048  RH  088%=      5-min Rain = 0
KST3 191536Z 36015KT M03/M05 A303 RMK A01 T10311048  RH  088%=      5-min Rain = 0
KST3 191537Z 36013KT M03/M05 A303 RMK A01 T10311048  RH  088%=      5-min Rain = 0
KST3 191538Z 35015KT M03/M05 A303 RMK A01 T10301048  RH  088%=      5-min Rain = 0
KST3 191539Z 00013KT M03/M05 A303 RMK A01 T10311048  RH  088%=      5-min Rain = 0
KST3 191540Z 00016KT M03/M05 A303 RMK A01 T10301048  RH  088%=      5-min Rain = 0
KST3 191541Z 00016KT M03/M05 A3031 RMK A01 T10301048  RH  087%=      5-min Rain = 0
KST3 191542Z 00014KT M03/M05 A3031 RMK A01 T10301048  RH  087%=      5-min Rain = 0
KST3 191543Z 35013KT M03/M05 A3031 RMK A01 T10301048  RH  088%=      5-min Rain = 0
KST3 191544Z 36015KT M03/M05 A3031 RMK A01 T10291047  RH  088%=      5-min Rain = 0
KST3 191545Z 00015KT M03/M05 A303 RMK A01 T10291047  RH  087%=      5-min Rain = 0
KST3 191546Z 01014KT M03/M05 A303 RMK A01 T10291047  RH  087%=      5-min Rain = 0
KST3 191547Z 01014KT M03/M05 A303 RMK A01 T10291047  RH  087%=      5-min Rain = 0
KST3 191548Z 01010KT M03/M05 A303 RMK A01 T10291047  RH  088%=      5-min Rain = 0
KST3 191549Z 01011KT M03/M05 A3031 RMK A01 T10301047  RH  088%=      5-min Rain = 0
KST3 191550Z 01014KT M03/M05 A3031 RMK A01 T10291047  RH  088%=      5-min Rain = 0
KST3 191551Z 01015KT M03/M05 A3031 RMK A01 T10301048  RH  087%=      5-min Rain = 0
KST3 191552Z 02012KT M03/M05 A3031 RMK A01 T10311050  RH  087%=      5-min Rain = 0
KST3 191553Z 01014KT M03/M05 A3031 RMK A01 T10311049  RH  087%=      5-min Rain = 0
KST3 191554Z 01012KT M03/M05 A3031 RMK A01 T10311049  RH  087%=      5-min Rain = 0
KST3 191555Z 00014KT M03/M05 A3031 RMK A01 T10311049  RH  087%=      5-min Rain = 0
KST3 191556Z 00014KT M03/M05 A3031 RMK A01 T10311049  RH  087%=      5-min Rain = 0
KST3 191557Z 36014KT M03/M05 A3031 RMK A01 T10311049  RH  087%=      5-min Rain = 0
KST3 191558Z 00014KT M03/M05 A3031 RMK A01 T10311050  RH  087%=      5-min Rain = 0
KST3 191559Z 00014KT M03/M05 A3031 RMK A01 T10311049  RH  087%=      5-min Rain = 0
KST3 191600Z 00014KT M03/M05 A3031 RMK A01 T10311049  RH  087%=      5-min Rain = 0
KST3 191601Z 36012KT M03/M05 A3031 RMK A01 T10311050  RH  087%=      5-min Rain = 0
KST3 191602Z 36012KT M03/M05 A3031 RMK A01 T10311050  RH  087%=      5-min Rain = 0
KST3 191603Z 36010KT M03/M05 A3031 RMK A01 T10301049  RH  087%=      5-min Rain = 0
KST3 191604Z 35009KT M03/M05 A3031 RMK A01 T10301048  RH  087%=      5-min Rain = 0
KST3 191605Z 34010KT M03/M05 A3031 RMK A01 T10291047  RH  088%=      5-min Rain = 0
KST3 191606Z 34010KT M03/M05 A3031 RMK A01 T10281047  RH  087%=      5-min Rain = 0
KST3 191607Z 34012KT M03/M05 A3031 RMK A01 T10281048  RH  087%=      5-min Rain = 0
KST3 191608Z 34013KT M03/M05 A3031 RMK A01 T10291048  RH  087%=      5-min Rain = 0
KST3 191609Z 34009KT M03/M05 A3031 RMK A01 T10291048  RH  087%=      5-min Rain = 0
KST3 191610Z 33011KT M03/M05 A3031 RMK A01 T10291047  RH  087%=      5-min Rain = 0
KST3 191611Z 35014KT M03/M05 A3032 RMK A01 T10281047  RH  087%=      5-min Rain = 0
KST3 191612Z 35015KT M03/M05 A3032 RMK A01 T10281047  RH  087%=      5-min Rain = 0
KST3 191613Z 33014KT M03/M05 A3032 RMK A01 T10281048  RH  086%=      5-min Rain = 0
KST3 191614Z 33014KT M03/M05 A3032 RMK A01 T10281048  RH  086%=      5-min Rain = 0
KST3 191615Z 34015KT M03/M05 A3032 RMK A01 T10281047  RH  087%=      5-min Rain = 0
KST3 191616Z 34015KT M03/M05 A3032 RMK A01 T10261045  RH  087%=      5-min Rain = 0
KST3 191617Z 34015KT M03/M05 A3032 RMK A01 T10251045  RH  086%=      5-min Rain = 0
KST3 191618Z 33013KT M03/M05 A3032 RMK A01 T10251045  RH  086%=      5-min Rain = 0
KST3 191619Z 34011KT M02/M04 A3032 RMK A01 T10241044  RH  086%=      5-min Rain = 0
KST3 191620Z 34011KT M02/M04 A3032 RMK A01 T10221042  RH  086%=      5-min Rain = 0
KST3 191621Z 34013KT M02/M04 A3032 RMK A01 T10221042  RH  086%=      5-min Rain = 0
KST3 191622Z 34013KT M02/M04 A3032 RMK A01 T10211043  RH  085%=      5-min Rain = 0
KST3 191623Z 34013KT M02/M04 A3033 RMK A01 T10211044  RH  085%=      5-min Rain = 0
KST3 191624Z 33014KT M02/M04 A3033 RMK A01 T10211043  RH  085%=      5-min Rain = 0
KST3 191625Z 34015KT M02/M04 A3033 RMK A01 T10211043  RH  085%=      5-min Rain = 0
KST3 191626Z 34015KT M02/M04 A3033 RMK A01 T10211043  RH  085%=      5-min Rain = 0
KST3 191627Z 34014KT M02/M05 A3032 RMK A01 T10221045  RH  084%=      5-min Rain = 0
KST3 191628Z 34015KT M02/M04 A3032 RMK A01 T10211044  RH  084%=      5-min Rain = 0
KST3 191629Z 35014KT M02/M05 A3033 RMK A01 T10211045  RH  084%=      5-min Rain = 0
KST3 191630Z 36013KT M02/M04 A3033 RMK A01 T10211043  RH  084%=      5-min Rain = 0
KST3 191631Z 35014KT M02/M04 A3033 RMK A01 T10201044  RH  084%=      5-min Rain = 0
KST3 191632Z 35015KT M02/M04 A3033 RMK A01 T10201044  RH  084%=      5-min Rain = 0
KST3 191633Z 36016KT M02/M04 A3033 RMK A01 T10201044  RH  084%=      5-min Rain = 0
KST3 191634Z 36016KT M02/M04 A3033 RMK A01 T10201044  RH  084%=      5-min Rain = 0
KST3 191635Z 36015KT M02/M04 A3033 RMK A01 T10201044  RH  084%=      5-min Rain = 0
KST3 191636Z 35012KT M02/M04 A3033 RMK A01 T10201043  RH  084%=      5-min Rain = 0
KST3 191637Z 36016KT M02/M04 A3033 RMK A01 T10191042  RH  084%=      5-min Rain = 0
KST3 191638Z 35013KT M02/M04 A3033 RMK A01 T10191043  RH  084%=      5-min Rain = 0
KST3 191639Z 35013G18KT M02/M04 A3033 RMK A01 T10191043  RH  084%=      5-min Rain = 0
KST3 191640Z 35015KT M02/M04 A3033 RMK A01 T10191042  RH  084%=      5-min Rain = 0
KST3 191641Z 35015KT M02/M04 A3033 RMK A01 T10191042  RH  084%=      5-min Rain = 0
KST3 191642Z 35017KT M02/M04 A3033 RMK A01 T10181042  RH  084%=      5-min Rain = 0
KST3 191643Z 00017G23KT M02/M04 A3033 RMK A01 T10181043  RH  083%=      5-min Rain = 0
KST3 191644Z 36016KT M02/M04 A3033 RMK A01 T10181042  RH  084%=      5-min Rain = 0
KST3 191645Z 36014KT M02/M04 A3033 RMK A01 T10181042  RH  084%=      5-min Rain = 0
KST3 191646Z 36013KT M02/M04 A3033 RMK A01 T10181042  RH  084%=      5-min Rain = 0
KST3 191647Z 35011KT M02/M04 A3033 RMK A01 T10181041  RH  084%=      5-min Rain = 0
KST3 191648Z 35015KT M02/M04 A3033 RMK A01 T10171040  RH  084%=      5-min Rain = 0
KST3 191649Z 00012KT M02/M04 A3033 RMK A01 T10171041  RH  083%=      5-min Rain = 0
KST3 191650Z 36015KT M02/M04 A3033 RMK A01 T10171041  RH  084%=      5-min Rain = 0
KST3 191651Z 35016KT M02/M04 A3033 RMK A01 T10171041  RH  084%=      5-min Rain = 0
KST3 191652Z 36017KT M02/M04 A3033 RMK A01 T10171042  RH  083%=      5-min Rain = 0
KST3 191653Z 36016KT M02/M04 A3033 RMK A01 T10171043  RH  083%=      5-min Rain = 0
KST3 191654Z 00017KT M02/M04 A3033 RMK A01 T10171042  RH  083%=      5-min Rain = 0
KST3 191655Z 00016KT M02/M04 A3033 RMK A01 T10171042  RH  083%=      5-min Rain = 0
KST3 191656Z 36016KT M02/M04 A3033 RMK A01 T10171042  RH  084%=      5-min Rain = 0
KST3 191657Z 35014KT M02/M04 A3033 RMK A01 T10171042  RH  083%=      5-min Rain = 0
KST3 191658Z 35016KT M02/M04 A3033 RMK A01 T10181042  RH  084%=      5-min Rain = 0
KST3 191659Z 35015KT M02/M04 A3033 RMK A01 T10181042  RH  083%=      5-min Rain = 0
KST3 191700Z 35013KT M02/M04 A3033 RMK A01 T10181043  RH  083%=      5-min Rain = 0
KST3 191701Z 35012KT M02/M04 A3033 RMK A01 T10191043  RH  083%=      5-min Rain = 0
KST3 191702Z 00013KT M02/M04 A3033 RMK A01 T10181042  RH  084%=      5-min Rain = 0
KST3 191703Z 00013KT M02/M04 A3033 RMK A01 T10181041  RH  084%=      5-min Rain = 0
KST3 191704Z 35013KT M02/M04 A3033 RMK A01 T10171041  RH  084%=      5-min Rain = 0
KST3 191705Z 35015KT M02/M04 A3033 RMK A01 T10171041  RH  084%=      5-min Rain = 0
KST3 191706Z 35015KT M02/M04 A3034 RMK A01 T10171041  RH  083%=      5-min Rain = 0
KST3 191707Z 35015KT M02/M04 A3034 RMK A01 T10171042  RH  083%=      5-min Rain = 0
KST3 191708Z 35015KT M02/M04 A3034 RMK A01 T10181042  RH  083%=      5-min Rain = 0
KST3 191709Z 35016KT M02/M04 A3034 RMK A01 T10181042  RH  083%=      5-min Rain = 0
KST3 191710Z 35014KT M02/M04 A3034 RMK A01 T10171043  RH  083%=      5-min Rain = 0
KST3 191711Z 35016KT M02/M04 A3034 RMK A01 T10171042  RH  083%=      5-min Rain = 0
KST3 191712Z 35014G19KT M02/M04 A3034 RMK A01 T10171042  RH  083%=      5-min Rain = 0
KST3 191713Z 35015KT M02/M04 A3034 RMK A01 T10181043  RH  083%=      5-min Rain = 0
KST3 191714Z 35015KT M02/M04 A3034 RMK A01 T10181043  RH  083%=      5-min Rain = 0
KST3 191715Z 35015KT M02/M04 A3034 RMK A01 T10181042  RH  084%=      5-min Rain = 0
KST3 191716Z 35016KT M02/M04 A3034 RMK A01 T10181043  RH  083%=      5-min Rain = 0
KST3 191717Z 34015KT M02/M04 A3034 RMK A01 T10181043  RH  083%=      5-min Rain = 0
KST3 191718Z 35015KT M02/M04 A3034 RMK A01 T10181043  RH  083%=      5-min Rain = 0
KST3 191719Z 36016KT M02/M04 A3034 RMK A01 T10181043  RH  083%=      5-min Rain = 0
KST3 191720Z 36016KT M02/M04 A3034 RMK A01 T10181043  RH  083%=      5-min Rain = 0
KST3 191721Z 36017KT M02/M04 A3034 RMK A01 T10181043  RH  083%=      5-min Rain = 0
KST3 191722Z 35016KT M02/M04 A3034 RMK A01 T10181042  RH  084%=      5-min Rain = 0
KST3 191723Z 36015KT M02/M04 A3034 RMK A01 T10181042  RH  084%=      5-min Rain = 0
KST3 191724Z 35015KT M02/M04 A3034 RMK A01 T10171040  RH  084%=      5-min Rain = 0
KST3 191725Z 35014KT M02/M04 A3034 RMK A01 T10161041  RH  084%=      5-min Rain = 0
KST3 191726Z 35017KT M02/M04 A3034 RMK A01 T10161041  RH  083%=      5-min Rain = 0
KST3 191727Z 36017KT M02/M04 A3034 RMK A01 T10171042  RH  083%=      5-min Rain = 0
KST3 191728Z 35015KT M02/M04 A3034 RMK A01 T10181043  RH  083%=      5-min Rain = 0
KST3 191729Z 35017KT M02/M04 A3034 RMK A01 T10181042  RH  083%=      5-min Rain = 0
KST3 191730Z 36016KT M02/M04 A3034 RMK A01 T10181043  RH  083%=      5-min Rain = 0
KST3 191731Z 35015KT M02/M04 A3034 RMK A01 T10181043  RH  083%=      5-min Rain = 0
KST3 191732Z 35015KT M02/M04 A3034 RMK A01 T10181042  RH  084%=      5-min Rain = 0
KST3 191733Z 34017KT M02/M04 A3034 RMK A01 T10181041  RH  084%=      5-min Rain = 0
KST3 191734Z 34015KT M02/M04 A3034 RMK A01 T10171042  RH  084%=      5-min Rain = 0
KST3 191735Z 35014KT M02/M04 A3034 RMK A01 T10171041  RH  084%=      5-min Rain = 0
KST3 191736Z 35015KT M02/M04 A3034 RMK A01 T10161039  RH  085%=      5-min Rain = 0
KST3 191737Z 35013KT M02/M04 A3034 RMK A01 T10151038  RH  085%=      5-min Rain = 0
KST3 191738Z 35013KT M01/M04 A3034 RMK A01 T10141036  RH  085%=      5-min Rain = 0
KST3 191739Z 34017KT M01/M04 A3034 RMK A01 T10141038  RH  084%=      5-min Rain = 0
KST3 191740Z 34016KT M02/M04 A3034 RMK A01 T10151039  RH  083%=      5-min Rain = 0
KST3 191741Z 34014KT M02/M04 A3034 RMK A01 T10151039  RH  084%=      5-min Rain = 0
KST3 191742Z 34016KT M01/M04 A3034 RMK A01 T10141037  RH  085%=      5-min Rain = 0
KST3 191743Z 35014KT M01/M04 A3034 RMK A01 T10141037  RH  084%=      5-min Rain = 0
KST3 191744Z 34017KT M01/M04 A3034 RMK A01 T10141038  RH  084%=      5-min Rain = 0
KST3 191745Z 35016KT M02/M04 A3034 RMK A01 T10151039  RH  083%=      5-min Rain = 0
KST3 191746Z 34015KT M02/M04 A3034 RMK A01 T10151039  RH  084%=      5-min Rain = 0
KST3 191747Z 35016KT M01/M04 A3034 RMK A01 T10141038  RH  084%=      5-min Rain = 0
KST3 191748Z 35016KT M02/M04 A3034 RMK A01 T10151039  RH  084%=      5-min Rain = 0
KST3 191749Z 35015KT M02/M04 A3034 RMK A01 T10151039  RH  084%=      5-min Rain = 0
KST3 191750Z 34015KT M02/M04 A3034 RMK A01 T10151038  RH  084%=      5-min Rain = 0
KST3 191751Z 34019KT M01/M04 A3034 RMK A01 T10141037  RH  084%=      5-min Rain = 0
KST3 191752Z 34016KT M01/M04 A3034 RMK A01 T10141038  RH  084%=      5-min Rain = 0
KST3 191753Z 35017KT M02/M04 A3034 RMK A01 T10151038  RH  084%=      5-min Rain = 0
KST3 191754Z 35018KT M02/M04 A3034 RMK A01 T10151038  RH  084%=      5-min Rain = 0
KST3 191755Z 35018KT M02/M04 A3034 RMK A01 T10151039  RH  083%=      5-min Rain = 0
KST3 191756Z 35015KT M02/M04 A3034 RMK A01 T10161040  RH  083%=      5-min Rain = 0
KST3 191757Z 35017KT M02/M04 A3033 RMK A01 T10151039  RH  084%=      5-min Rain = 0
KST3 191758Z 34018KT M02/M04 A3033 RMK A01 T10151038  RH  084%=      5-min Rain = 0
KST3 191759Z 35016KT M01/M04 A3033 RMK A01 T10141037  RH  085%=      5-min Rain = 0
KST3 191800Z 34016KT M01/M04 A3033 RMK A01 T10141037  RH  084%=      5-min Rain = 0
KST3 191801Z 35014KT M01/M04 A3033 RMK A01 T10141037  RH  084%=      5-min Rain = 0
KST3 191802Z 34013KT M01/M04 A3033 RMK A01 T10131036  RH  085%=      5-min Rain = 0
KST3 191803Z 34014KT M01/M03 A3033 RMK A01 T10121034  RH  085%=      5-min Rain = 0
KST3 191804Z 34013KT M01/M03 A3033 RMK A01 T10111033  RH  085%=      5-min Rain = 0
KST3 191805Z 34014KT M01/M03 A3033 RMK A01 T10101032  RH  085%=      5-min Rain = 0
KST3 191806Z 34014KT M01/M03 A3033 RMK A01 T10101033  RH  084%=      5-min Rain = 0
KST3 191807Z 34016KT M01/M03 A3033 RMK A01 T10101033  RH  084%=      5-min Rain = 0
KST3 191808Z 34016KT M01/M04 A3033 RMK A01 T10111035  RH  084%=      5-min Rain = 0
KST3 191809Z 34017KT M01/M04 A3033 RMK A01 T10121037  RH  083%=      5-min Rain = 0
KST3 191810Z 33016KT M01/M04 A3033 RMK A01 T10131037  RH  084%=      5-min Rain = 0
KST3 191811Z 34017KT M01/M04 A3033 RMK A01 T10121035  RH  085%=      5-min Rain = 0
KST3 191812Z 33014KT M01/M04 A3033 RMK A01 T10121036  RH  084%=      5-min Rain = 0
KST3 191813Z 34014KT M01/M04 A3033 RMK A01 T10121036  RH  084%=      5-min Rain = 0
KST3 191814Z 34012KT M01/M04 A3033 RMK A01 T10131036  RH  084%=      5-min Rain = 0
KST3 191815Z 34013KT M01/M03 A3033 RMK A01 T10121033  RH  086%=      5-min Rain = 0
KST3 191816Z 34014KT M01/M03 A3033 RMK A01 T10111033  RH  085%=      5-min Rain = 0
KST3 191817Z 34017KT M01/M03 A3033 RMK A01 T10111034  RH  084%=      5-min Rain = 0
KST3 191818Z 34014KT M01/M04 A3033 RMK A01 T10121036  RH  084%=      5-min Rain = 0
KST3 191819Z 36015KT M01/M04 A3033 RMK A01 T10121035  RH  084%=      5-min Rain = 0
KST3 191820Z 34017KT M01/M03 A3033 RMK A01 T10111033  RH  085%=      5-min Rain = 0
KST3 191821Z 34017KT M01/M04 A3033 RMK A01 T10111036  RH  084%=      5-min Rain = 0
KST3 191822Z 35015KT M01/M04 A3033 RMK A01 T10121035  RH  084%=      5-min Rain = 0
KST3 191823Z 35017KT M01/M04 A3033 RMK A01 T10121036  RH  084%=      5-min Rain = 0
KST3 191824Z 35016KT M01/M04 A3033 RMK A01 T10131039  RH  083%=      5-min Rain = 0
KST3 191825Z 35016KT M01/M04 A3033 RMK A01 T10141039  RH  083%=      5-min Rain = 0
KST3 191826Z 35013KT M01/M04 A3033 RMK A01 T10141038  RH  083%=      5-min Rain = 0
KST3 191827Z 36014KT M01/M04 A3032 RMK A01 T10131037  RH  084%=      5-min Rain = 0
KST3 191828Z 00014KT M01/M04 A3032 RMK A01 T10121035  RH  084%=      5-min Rain = 0
KST3 191829Z 35014KT M01/M04 A3032 RMK A01 T10121035  RH  084%=      5-min Rain = 0
KST3 191830Z 35013KT M01/M04 A3032 RMK A01 T10121036  RH  084%=      5-min Rain = 0
KST3 191831Z 35015KT M01/M04 A3032 RMK A01 T10121035  RH  084%=      5-min Rain = 0
KST3 191832Z 36014KT M01/M04 A3032 RMK A01 T10121036  RH  083%=      5-min Rain = 0
KST3 191833Z 35013G18KT M01/M04 A3032 RMK A01 T10121036  RH  084%=      5-min Rain = 0
KST3 191834Z 35013KT M01/M03 A3032 RMK A01 T10111034  RH  084%=      5-min Rain = 0
KST3 191835Z 35014KT M01/M04 A3032 RMK A01 T10101035  RH  084%=      5-min Rain = 0
KST3 191836Z 35013KT M01/M04 A3032 RMK A01 T10101035  RH  083%=      5-min Rain = 0
KST3 191837Z 35013KT M01/M03 A3032 RMK A01 T10101034  RH  084%=      5-min Rain = 0
KST3 191838Z 34013KT M01/M03 A3032 RMK A01 T10091032  RH  084%=      5-min Rain = 0
KST3 191839Z 34012G18KT M01/M03 A3032 RMK A01 T10081032  RH  084%=      5-min Rain = 0
KST3 191840Z 33015KT M01/M03 A3031 RMK A01 T10071031  RH  084%=      5-min Rain = 0
KST3 191841Z 34014KT M01/M03 A3031 RMK A01 T10071032  RH  083%=      5-min Rain = 0
KST3 191842Z 34015KT M01/M03 A3031 RMK A01 T10071032  RH  083%=      5-min Rain = 0
KST3 191843Z 34013KT M01/M03 A3031 RMK A01 T10081034  RH  083%=      5-min Rain = 0
KST3 191844Z 34015KT M01/M03 A3031 RMK A01 T10081033  RH  083%=      5-min Rain = 0
KST3 191845Z 33011KT M01/M03 A3031 RMK A01 T10081033  RH  083%=      5-min Rain = 0
KST3 191846Z 34013KT M01/M03 A3031 RMK A01 T10051028  RH  085%=      5-min Rain = 0
KST3 191847Z 35014KT M00/M03 A3031 RMK A01 T10041029  RH  084%=      5-min Rain = 0
KST3 191848Z 34015KT M01/M03 A3032 RMK A01 T10061032  RH  082%=      5-min Rain = 0
KST3 191849Z 35013KT M01/M03 A3032 RMK A01 T10071034  RH  082%=      5-min Rain = 0
KST3 191850Z 34014KT M01/M03 A3031 RMK A01 T10061031  RH  083%=      5-min Rain = 0
KST3 191851Z 35014KT M01/M03 A3032 RMK A01 T10061033  RH  082%=      5-min Rain = 0
KST3 191852Z 34016KT M01/M03 A3031 RMK A01 T10061032  RH  083%=      5-min Rain = 0
KST3 191853Z 35013KT M01/M03 A3031 RMK A01 T10071034  RH  082%=      5-min Rain = 0
KST3 191854Z 35014KT M01/M04 A3031 RMK A01 T10071035  RH  082%=      5-min Rain = 0
KST3 191855Z 35015KT M01/M03 A3031 RMK A01 T10081034  RH  082%=      5-min Rain = 0
KST3 191856Z 35014KT M01/M03 A3031 RMK A01 T10071033  RH  082%=      5-min Rain = 0
KST3 191857Z 35013KT M01/M04 A3031 RMK A01 T10071035  RH  082%=      5-min Rain = 0
KST3 191858Z 34013KT M01/M03 A3031 RMK A01 T10071034  RH  082%=      5-min Rain = 0
KST3 191859Z 33016KT M01/M03 A3031 RMK A01 T10061032  RH  083%=      5-min Rain = 0
KST3 191900Z 34016KT M01/M03 A3031 RMK A01 T10061032  RH  083%=      5-min Rain = 0
KST3 191901Z 34014KT M01/M03 A3031 RMK A01 T10061033  RH  082%=      5-min Rain = 0
KST3 191902Z 33013KT M01/M03 A3031 RMK A01 T10071034  RH  082%=      5-min Rain = 0
KST3 191903Z 33013KT M01/M03 A3031 RMK A01 T10051031  RH  083%=      5-min Rain = 0
KST3 191904Z 33014KT M00/M03 A3031 RMK A01 T10041030  RH  083%=      5-min Rain = 0
KST3 191905Z 33013KT M00/M03 A3031 RMK A01 T10041030  RH  082%=      5-min Rain = 0
KST3 191906Z 33013KT M00/M03 A3031 RMK A01 T10041031  RH  082%=      5-min Rain = 0
KST3 191907Z 33014KT M00/M03 A303 RMK A01 T10041031  RH  082%=      5-min Rain = 0
KST3 191908Z 33014KT M00/M03 A303 RMK A01 T10041032  RH  081%=      5-min Rain = 0
KST3 191909Z 33012KT M00/M03 A303 RMK A01 T10041031  RH  082%=      5-min Rain = 0
KST3 191910Z 33013KT M00/M03 A303 RMK A01 T10031030  RH  082%=      5-min Rain = 0
KST3 191911Z 34013KT M00/M03 A303 RMK A01 T10021030  RH  082%=      5-min Rain = 0
KST3 191912Z 33012KT M00/M03 A303 RMK A01 T10021029  RH  082%=      5-min Rain = 0
KST3 191913Z 34014KT 00/03 A303 RMK A01 T00-00-25  RH  083%=      5-min Rain = 0
KST3 191914Z 33013KT 00/03 A303 RMK A01 T00-00-27  RH  082%=      5-min Rain = 0
KST3 191915Z 33011KT 00/03 A303 RMK A01 T00-00-28  RH  081%=      5-min Rain = 0
KST3 191916Z 33010KT 00/03 A303 RMK A01 T00000-25  RH  083%=      5-min Rain = 0
KST3 191917Z 33014KT 00/M03 A303 RMK A01 T00021025  RH  082%=      5-min Rain = 0
KST3 191918Z 33013KT 00/M03 A303 RMK A01 T00011027  RH  081%=      5-min Rain = 0
KST3 191919Z 34013KT 00/M03 A303 RMK A01 T00021027  RH  081%=      5-min Rain = 0
KST3 191920Z 34012KT 00/03 A3029 RMK A01 T00000-30  RH  080%=      5-min Rain = 0
KST3 191921Z 34012KT M00/M03 A3029 RMK A01 T10011031  RH  080%=      5-min Rain = 0
KST3 191922Z 34011KT M00/M03 A3029 RMK A01 T10011031  RH  080%=      5-min Rain = 0
KST3 191923Z 34011KT M00/M03 A3029 RMK A01 T10011030  RH  081%=      5-min Rain = 0
KST3 191924Z 35012KT 00/03 A3029 RMK A01 T00-00-28  RH  082%=      5-min Rain = 0
KST3 191925Z 32013KT M00/M03 A3029 RMK A01 T10011030  RH  081%=      5-min Rain = 0
KST3 191926Z 33012KT M00/M03 A3029 RMK A01 T10011029  RH  081%=      5-min Rain = 0
KST3 191927Z 32010KT 00/03 A3029 RMK A01 T00-00-27  RH  082%=      5-min Rain = 0
KST3 191928Z 32012KT 00/M03 A3029 RMK A01 T00011026  RH  082%=      5-min Rain = 0
KST3 191929Z 32014KT 00/M03 A3029 RMK A01 T00021026  RH  082%=      5-min Rain = 0
KST3 191930Z 32016KT 00/M03 A3029 RMK A01 T00031026  RH  081%=      5-min Rain = 0
KST3 191931Z 33013KT 00/M03 A3029 RMK A01 T00041026  RH  081%=      5-min Rain = 0
KST3 191932Z 32012G18KT 01/M02 A3029 RMK A01 T00061022  RH  082%=      5-min Rain = 0
KST3 191933Z 32015KT 01/M02 A3029 RMK A01 T00071023  RH  080%=      5-min Rain = 0
KST3 191934Z 32012KT 01/M03 A3029 RMK A01 T00051029  RH  078%=      5-min Rain = 0
KST3 191935Z 32011KT 00/M03 A3029 RMK A01 T00031030  RH  079%=      5-min Rain = 0
KST3 191936Z 33012KT 00/M03 A3029 RMK A01 T00011031  RH  079%=      5-min Rain = 0
KST3 191937Z 32013KT 00/M03 A3029 RMK A01 T00011030  RH  080%=      5-min Rain = 0
KST3 191938Z 33013KT 00/M03 A3029 RMK A01 T00021027  RH  081%=      5-min Rain = 0
KST3 191939Z 33011KT 00/M03 A3029 RMK A01 T00021029  RH  080%=      5-min Rain = 0
KST3 191940Z 33011KT 00/03 A3029 RMK A01 T00-00-32  RH  079%=      5-min Rain = 0
KST3 191941Z 32013KT 00/03 A3029 RMK A01 T00-00-30  RH  080%=      5-min Rain = 0
KST3 191942Z 33012KT 00/03 A3029 RMK A01 T00-00-31  RH  080%=      5-min Rain = 0
KST3 191943Z 32012KT 00/M03 A3029 RMK A01 T00021026  RH  081%=      5-min Rain = 0
KST3 191944Z 32014KT 01/M02 A3029 RMK A01 T00081021  RH  081%=      5-min Rain = 0
KST3 191945Z 33013KT 01/M02 A3029 RMK A01 T00091023  RH  079%=      5-min Rain = 0
KST3 191946Z 34012KT 01/M03 A3029 RMK A01 T00071028  RH  077%=      5-min Rain = 0
KST3 191947Z 34013KT 01/M03 A3029 RMK A01 T00051028  RH  078%=      5-min Rain = 0
KST3 191948Z 34012KT 01/M03 A3029 RMK A01 T00051026  RH  079%=      5-min Rain = 0
KST3 191949Z 33011KT 01/M03 A3029 RMK A01 T00061025  RH  079%=      5-min Rain = 0
KST3 191950Z 32011KT 01/M02 A3029 RMK A01 T00091024  RH  079%=      5-min Rain = 0
KST3 191951Z 33014KT 01/M02 A3029 RMK A01 T00101023  RH  079%=      5-min Rain = 0
KST3 191952Z 32012KT 01/M02 A3029 RMK A01 T00091024  RH  078%=      5-min Rain = 0
KST3 191953Z 32011KT 01/M03 A3028 RMK A01 T00061029  RH  077%=      5-min Rain = 0
KST3 191954Z 32013KT 01/M03 A3028 RMK A01 T00051028  RH  079%=      5-min Rain = 0
KST3 191955Z 31012KT 00/M03 A3028 RMK A01 T00041029  RH  079%=      5-min Rain = 0
KST3 191956Z 32010KT 00/M03 A3028 RMK A01 T00021030  RH  079%=      5-min Rain = 0
KST3 191957Z 32010KT 00/M03 A3028 RMK A01 T00031026  RH  081%=      5-min Rain = 0
KST3 191958Z 32011KT 01/M03 A3028 RMK A01 T00051025  RH  080%=      5-min Rain = 0
KST3 191959Z 32012KT 01/M03 A3028 RMK A01 T00051026  RH  079%=      5-min Rain = 0
KST3 192000Z 32014KT 01/M03 A3028 RMK A01 T00061026  RH  079%=      5-min Rain = 0
KST3 192001Z 31011KT 01/M03 A3028 RMK A01 T00061029  RH  078%=      5-min Rain = 0
KST3 192002Z 33012KT 01/M03 A3028 RMK A01 T00051027  RH  079%=      5-min Rain = 0
KST3 192003Z 32012KT 01/M03 A3028 RMK A01 T00061027  RH  079%=      5-min Rain = 0
KST3 192004Z 32013KT 01/M03 A3028 RMK A01 T00051029  RH  078%=      5-min Rain = 0
KST3 192005Z 32014KT 00/M03 A3028 RMK A01 T00041029  RH  079%=      5-min Rain = 0
KST3 192006Z 33012KT 00/M03 A3028 RMK A01 T00031029  RH  079%=      5-min Rain = 0
KST3 192007Z 32015KT 00/M03 A3028 RMK A01 T00041029  RH  079%=      5-min Rain = 0
KST3 192008Z 32014KT 01/M03 A3028 RMK A01 T00051029  RH  078%=      5-min Rain = 0
KST3 192009Z 33014KT 01/M03 A3028 RMK A01 T00051031  RH  077%=      5-min Rain = 0
KST3 192010Z 32014KT 00/M03 A3028 RMK A01 T00041032  RH  077%=      5-min Rain = 0
KST3 192011Z 32012KT 00/M03 A3028 RMK A01 T00031030  RH  078%=      5-min Rain = 0
KST3 192012Z 33013KT 00/M03 A3027 RMK A01 T00041028  RH  079%=      5-min Rain = 0
KST3 192013Z 33015KT 01/M03 A3027 RMK A01 T00051028  RH  078%=      5-min Rain = 0
KST3 192014Z 32015KT 00/M03 A3027 RMK A01 T00041030  RH  078%=      5-min Rain = 0
KST3 192015Z 33015KT 01/M03 A3027 RMK A01 T00051028  RH  079%=      5-min Rain = 0
KST3 192016Z 33016G21KT 01/M02 A3027 RMK A01 T00101024  RH  078%=      5-min Rain = 0
KST3 192017Z 34013KT 01/M03 A3027 RMK A01 T00101027  RH  076%=      5-min Rain = 0
KST3 192018Z 33013KT 01/M03 A3027 RMK A01 T00101027  RH  076%=      5-min Rain = 0
KST3 192019Z 33012KT 01/M03 A3027 RMK A01 T00101027  RH  077%=      5-min Rain = 0
KST3 192020Z 33013KT 01/M03 A3027 RMK A01 T00101026  RH  077%=      5-min Rain = 0
KST3 192021Z 33014KT 01/M03 A3027 RMK A01 T00111025  RH  077%=      5-min Rain = 0
KST3 192022Z 32013KT 01/M03 A3027 RMK A01 T00121026  RH  076%=      5-min Rain = 0
KST3 192023Z 33015KT 01/M03 A3027 RMK A01 T00121027  RH  075%=      5-min Rain = 0
KST3 192024Z 33014KT 01/M03 A3027 RMK A01 T00101030  RH  075%=      5-min Rain = 0
KST3 192025Z 33013KT 01/M03 A3027 RMK A01 T00071032  RH  075%=      5-min Rain = 0
KST3 192026Z 32013KT 01/M03 A3027 RMK A01 T00061030  RH  076%=      5-min Rain = 0
KST3 192027Z 32010G16KT 01/M02 A3027 RMK A01 T00111024  RH  078%=      5-min Rain = 0
KST3 192028Z 31014KT 02/M02 A3027 RMK A01 T00151022  RH  076%=      5-min Rain = 0
KST3 192029Z 31011KT 02/M03 A3027 RMK A01 T00151025  RH  075%=      5-min Rain = 0
KST3 192030Z 33013KT 01/M03 A3026 RMK A01 T00141026  RH  075%=      5-min Rain = 0
KST3 192031Z 33015KT 01/M03 A3026 RMK A01 T00141026  RH  075%=      5-min Rain = 0
KST3 192032Z 32015KT 01/M03 A3026 RMK A01 T00131028  RH  074%=      5-min Rain = 0
KST3 192033Z 32015KT 01/M03 A3026 RMK A01 T00121029  RH  074%=      5-min Rain = 0
KST3 192034Z 33015KT 01/M03 A3026 RMK A01 T00111029  RH  075%=      5-min Rain = 0
KST3 192035Z 33014KT 01/M03 A3026 RMK A01 T00121028  RH  075%=      5-min Rain = 0
KST3 192036Z 33014KT 01/M03 A3026 RMK A01 T00131027  RH  074%=      5-min Rain = 0
KST3 192037Z 31013KT 02/M03 A3026 RMK A01 T00161026  RH  074%=      5-min Rain = 0
KST3 192038Z 32011KT 02/M03 A3026 RMK A01 T00151028  RH  073%=      5-min Rain = 0
KST3 192039Z 32014KT 02/M03 A3026 RMK A01 T00151026  RH  074%=      5-min Rain = 0
KST3 192040Z 33011KT 02/M03 A3026 RMK A01 T00161026  RH  074%=      5-min Rain = 0
KST3 192041Z 32011KT 02/M03 A3026 RMK A01 T00171026  RH  073%=      5-min Rain = 0
KST3 192042Z 31010KT 02/M03 A3026 RMK A01 T00181025  RH  073%=      5-min Rain = 0
KST3 192043Z 33013KT 02/M03 A3026 RMK A01 T00181026  RH  072%=      5-min Rain = 0
KST3 192044Z 32012KT 02/M03 A3026 RMK A01 T00171027  RH  073%=      5-min Rain = 0
KST3 192045Z 32011KT 02/M03 A3026 RMK A01 T00171026  RH  073%=      5-min Rain = 0
KST3 192046Z 32011KT 02/M03 A3026 RMK A01 T00181025  RH  073%=      5-min Rain = 0
KST3 192047Z 33012KT 02/M02 A3026 RMK A01 T00201024  RH  073%=      5-min Rain = 0
KST3 192048Z 32012KT 02/M03 A3026 RMK A01 T00201025  RH  072%=      5-min Rain = 0
KST3 192049Z 32013KT 02/M03 A3026 RMK A01 T00191026  RH  072%=      5-min Rain = 0
KST3 192050Z 32012KT 02/M03 A3026 RMK A01 T00191026  RH  072%=      5-min Rain = 0
KST3 192051Z 32012KT 02/M03 A3026 RMK A01 T00181026  RH  073%=      5-min Rain = 0
KST3 192052Z 32012KT 02/M03 A3026 RMK A01 T00181026  RH  073%=      5-min Rain = 0
KST3 192053Z 31011KT 02/M03 A3026 RMK A01 T00181025  RH  073%=      5-min Rain = 0
KST3 192054Z 32009KT 02/M03 A3026 RMK A01 T00181026  RH  073%=      5-min Rain = 0
KST3 192055Z 34011KT 02/M02 A3026 RMK A01 T00201024  RH  073%=      5-min Rain = 0
KST3 192056Z 33013KT 02/M02 A3026 RMK A01 T00221024  RH  071%=      5-min Rain = 0
KST3 192057Z 34013KT 02/M03 A3026 RMK A01 T00221025  RH  071%=      5-min Rain = 0
KST3 192058Z 33011KT 02/M03 A3026 RMK A01 T00221025  RH  071%=      5-min Rain = 0
KST3 192059Z 33011KT 02/M02 A3026 RMK A01 T00241022  RH  071%=      5-min Rain = 0
KST3 192100Z 32011KT 03/M02 A3026 RMK A01 T00261023  RH  070%=      5-min Rain = 0
KST3 192101Z 32015KT 02/M03 A3026 RMK A01 T00241025  RH  070%=      5-min Rain = 0
KST3 192102Z 31012KT 02/M03 A3026 RMK A01 T00231026  RH  070%=      5-min Rain = 0
KST3 192103Z 32012KT 02/M03 A3026 RMK A01 T00211027  RH  070%=      5-min Rain = 0
KST3 192104Z 33012KT 02/M03 A3026 RMK A01 T00211026  RH  071%=      5-min Rain = 0
KST3 192105Z 33011KT 02/M03 A3026 RMK A01 T00211026  RH  071%=      5-min Rain = 0
KST3 192106Z 33014KT 02/M03 A3026 RMK A01 T00221026  RH  071%=      5-min Rain = 0
KST3 192107Z 33012KT 02/M02 A3026 RMK A01 T00231024  RH  071%=      5-min Rain = 0
KST3 192108Z 34012KT 02/M02 A3026 RMK A01 T00231024  RH  071%=      5-min Rain = 0
KST3 192109Z 32011KT 02/M02 A3026 RMK A01 T00241024  RH  071%=      5-min Rain = 0
KST3 192110Z 32015KT 03/M02 A3026 RMK A01 T00251023  RH  070%=      5-min Rain = 0
KST3 192111Z 33012KT 02/M03 A3026 RMK A01 T00241026  RH  070%=      5-min Rain = 0
KST3 192112Z 33010KT 02/M03 A3026 RMK A01 T00211028  RH  070%=      5-min Rain = 0
KST3 192113Z 32011G17KT 02/M03 A3026 RMK A01 T00201027  RH  071%=      5-min Rain = 0
KST3 192114Z 32014KT 02/M03 A3026 RMK A01 T00221025  RH  071%=      5-min Rain = 0
KST3 192115Z 32015KT 02/M03 A3026 RMK A01 T00241025  RH  070%=      5-min Rain = 0
KST3 192116Z 32012KT 02/M03 A3026 RMK A01 T00241026  RH  070%=      5-min Rain = 0
KST3 192117Z 32011KT 02/M03 A3026 RMK A01 T00241026  RH  069%=      5-min Rain = 0
KST3 192118Z 32010KT 02/M03 A3026 RMK A01 T00231026  RH  070%=      5-min Rain = 0
KST3 192119Z 33011KT 02/M02 A3026 RMK A01 T00241024  RH  070%=      5-min Rain = 0
KST3 192120Z 34013KT 03/M02 A3026 RMK A01 T00271022  RH  070%=      5-min Rain = 0
KST3 192121Z 34011KT 03/M02 A3026 RMK A01 T00271023  RH  069%=      5-min Rain = 0
KST3 192122Z 33011KT 03/M02 A3026 RMK A01 T00281023  RH  069%=      5-min Rain = 0
KST3 192123Z 32012KT 03/M02 A3026 RMK A01 T00281024  RH  069%=      5-min Rain = 0
KST3 192124Z 32011KT 03/M03 A3026 RMK A01 T00261026  RH  069%=      5-min Rain = 0
KST3 192125Z 33009KT 03/M03 A3026 RMK A01 T00251025  RH  069%=      5-min Rain = 0
KST3 192126Z 32009KT 03/M02 A3026 RMK A01 T00261023  RH  070%=      5-min Rain = 0
KST3 192127Z 31012KT 03/M02 A3026 RMK A01 T00281022  RH  070%=      5-min Rain = 0
KST3 192128Z 32012KT 03/M02 A3026 RMK A01 T00291023  RH  069%=      5-min Rain = 0
KST3 192129Z 32011KT 03/M02 A3026 RMK A01 T00281023  RH  069%=      5-min Rain = 0
KST3 192130Z 31011KT 03/M02 A3026 RMK A01 T00271023  RH  069%=      5-min Rain = 0
KST3 192131Z 31013KT 03/M02 A3026 RMK A01 T00281024  RH  069%=      5-min Rain = 0
KST3 192132Z 32014KT 03/M02 A3026 RMK A01 T00271024  RH  069%=      5-min Rain = 0
KST3 192133Z 32011KT 03/M02 A3026 RMK A01 T00271024  RH  069%=      5-min Rain = 0
KST3 192134Z 33013KT 03/M02 A3026 RMK A01 T00281022  RH  070%=      5-min Rain = 0
KST3 192135Z 33013KT 03/M02 A3026 RMK A01 T00291023  RH  069%=      5-min Rain = 0
KST3 192136Z 32013KT 03/M02 A3026 RMK A01 T00291022  RH  069%=      5-min Rain = 0
KST3 192137Z 32009KT 03/M02 A3026 RMK A01 T00301022  RH  068%=      5-min Rain = 0
KST3 192138Z 32011KT 03/M02 A3026 RMK A01 T00301023  RH  068%=      5-min Rain = 0
KST3 192139Z 32011KT 03/M02 A3026 RMK A01 T00301022  RH  069%=      5-min Rain = 0
KST3 192140Z 32011KT 03/M02 A3026 RMK A01 T00301023  RH  068%=      5-min Rain = 0
KST3 192141Z 32010KT 03/M02 A3026 RMK A01 T00291024  RH  068%=      5-min Rain = 0
KST3 192142Z 33011KT 03/M02 A3025 RMK A01 T00291023  RH  069%=      5-min Rain = 0
KST3 192143Z 32008KT 03/M02 A3026 RMK A01 T00291023  RH  069%=      5-min Rain = 0
KST3 192144Z 32010KT 03/M02 A3026 RMK A01 T00301022  RH  069%=      5-min Rain = 0
KST3 192145Z 32009KT 03/M02 A3026 RMK A01 T00311021  RH  069%=      5-min Rain = 0
KST3 192146Z 33010KT 03/M02 A3026 RMK A01 T00321021  RH  068%=      5-min Rain = 0
KST3 192147Z 32008KT 03/M02 A3026 RMK A01 T00331020  RH  068%=      5-min Rain = 0
KST3 192148Z 32011KT 04/M02 A3026 RMK A01 T00351020  RH  067%=      5-min Rain = 0
KST3 192149Z 33011KT 03/M02 A3026 RMK A01 T00331023  RH  066%=      5-min Rain = 0
KST3 192150Z 32010KT 03/M02 A3026 RMK A01 T00321023  RH  067%=      5-min Rain = 0
KST3 192151Z 31009KT 03/M02 A3026 RMK A01 T00311024  RH  067%=      5-min Rain = 0
KST3 192152Z 33006KT 03/M02 A3026 RMK A01 T00301023  RH  068%=      5-min Rain = 0
KST3 192153Z 34007KT 03/M02 A3026 RMK A01 T00311022  RH  068%=      5-min Rain = 0
KST3 192154Z 32009KT 03/M02 A3026 RMK A01 T00341022  RH  067%=      5-min Rain = 0
KST3 192155Z 33009KT 03/M02 A3026 RMK A01 T00341024  RH  066%=      5-min Rain = 0
KST3 192156Z 32009KT 03/M02 A3026 RMK A01 T00341023  RH  066%=      5-min Rain = 0
KST3 192157Z 32010KT 03/M02 A3025 RMK A01 T00331023  RH  067%=      5-min Rain = 0
KST3 192158Z 32008KT 03/M02 A3025 RMK A01 T00321024  RH  067%=      5-min Rain = 0
KST3 192159Z 32008KT 03/M02 A3025 RMK A01 T00321022  RH  067%=      5-min Rain = 0
KST3 192200Z 33007KT 03/M02 A3025 RMK A01 T00331022  RH  067%=      5-min Rain = 0
KST3 192201Z 33008KT 04/M02 A3025 RMK A01 T00351021  RH  067%=      5-min Rain = 0
KST3 192202Z 33006KT 04/M02 A3026 RMK A01 T00351022  RH  066%=      5-min Rain = 0
KST3 192203Z 33009KT 04/M02 A3025 RMK A01 T00361021  RH  067%=      5-min Rain = 0
KST3 192204Z 34009KT 04/M02 A3025 RMK A01 T00371022  RH  066%=      5-min Rain = 0
KST3 192205Z 34009KT 04/M02 A3026 RMK A01 T00371021  RH  066%=      5-min Rain = 0
KST3 192206Z 33009KT 04/M02 A3026 RMK A01 T00381022  RH  065%=      5-min Rain = 0
KST3 192207Z 33008KT 04/M02 A3026 RMK A01 T00371022  RH  065%=      5-min Rain = 0
KST3 192208Z 32010KT 04/M02 A3026 RMK A01 T00371022  RH  065%=      5-min Rain = 0
KST3 192209Z 34008KT 04/M02 A3026 RMK A01 T00361021  RH  066%=      5-min Rain = 0
KST3 192210Z 35009KT 04/M02 A3026 RMK A01 T00371021  RH  066%=      5-min Rain = 0
KST3 192211Z 34011KT 04/M02 A3026 RMK A01 T00371021  RH  066%=      5-min Rain = 0
KST3 192212Z 35011KT 04/M02 A3026 RMK A01 T00351023  RH  066%=      5-min Rain = 0
KST3 192213Z 34011KT 03/M02 A3026 RMK A01 T00341022  RH  066%=      5-min Rain = 0
KST3 192214Z 34011KT 03/M02 A3026 RMK A01 T00341023  RH  066%=      5-min Rain = 0
KST3 192215Z 33012KT 03/M02 A3025 RMK A01 T00341023  RH  066%=      5-min Rain = 0
KST3 192216Z 34010KT 03/M02 A3025 RMK A01 T00341024  RH  066%=      5-min Rain = 0
KST3 192217Z 35012KT 03/M02 A3025 RMK A01 T00331023  RH  066%=      5-min Rain = 0
KST3 192218Z 34009KT 03/M02 A3025 RMK A01 T00331023  RH  067%=      5-min Rain = 0
KST3 192219Z 34011KT 03/M02 A3025 RMK A01 T00341021  RH  067%=      5-min Rain = 0
KST3 192220Z 35010KT 04/M02 A3025 RMK A01 T00351021  RH  067%=      5-min Rain = 0
KST3 192221Z 34010KT 03/M02 A3025 RMK A01 T00341021  RH  067%=      5-min Rain = 0
KST3 192222Z 34011KT 03/M02 A3025 RMK A01 T00341021  RH  067%=      5-min Rain = 0
KST3 192223Z 34011KT 04/M02 A3025 RMK A01 T00351022  RH  067%=      5-min Rain = 0
KST3 192224Z 34009KT 03/M02 A3025 RMK A01 T00341021  RH  067%=      5-min Rain = 0
KST3 192225Z 34011KT 04/M02 A3025 RMK A01 T00351020  RH  067%=      5-min Rain = 0
KST3 192226Z 32009KT 04/M02 A3025 RMK A01 T00351021  RH  067%=      5-min Rain = 0
KST3 192227Z 31008KT 03/M02 A3025 RMK A01 T00341021  RH  067%=      5-min Rain = 0
KST3 192228Z 33009KT 03/M02 A3026 RMK A01 T00341020  RH  068%=      5-min Rain = 0
KST3 192229Z 33009KT 04/M02 A3025 RMK A01 T00351019  RH  068%=      5-min Rain = 0
KST3 192230Z 34009KT 04/M02 A3026 RMK A01 T00361019  RH  067%=      5-min Rain = 0
KST3 192231Z 33006KT 04/M02 A3025 RMK A01 T00351020  RH  067%=      5-min Rain = 0
KST3 192232Z 33009KT 04/M02 A3025 RMK A01 T00351020  RH  067%=      5-min Rain = 0
KST3 192233Z 34010KT 04/M02 A3025 RMK A01 T00351020  RH  067%=      5-min Rain = 0
KST3 192234Z 34009KT 04/M02 A3025 RMK A01 T00351020  RH  067%=      5-min Rain = 0
KST3 192235Z 34010KT 03/M02 A3025 RMK A01 T00341021  RH  068%=      5-min Rain = 0
KST3 192236Z 34009KT 03/M02 A3025 RMK A01 T00341020  RH  068%=      5-min Rain = 0
KST3 192237Z 34008KT 03/M02 A3026 RMK A01 T00341020  RH  068%=      5-min Rain = 0
KST3 192238Z 34008KT 03/M02 A3026 RMK A01 T00341019  RH  068%=      5-min Rain = 0
KST3 192239Z 33007KT 04/M02 A3026 RMK A01 T00351019  RH  068%=      5-min Rain = 0
KST3 192240Z 33010KT 04/M02 A3026 RMK A01 T00361019  RH  067%=      5-min Rain = 0
KST3 192241Z 33010KT 04/M02 A3026 RMK A01 T00361020  RH  067%=      5-min Rain = 0
KST3 192242Z 33009KT 04/M02 A3026 RMK A01 T00361020  RH  067%=      5-min Rain = 0
KST3 192243Z 34009KT 03/M02 A3026 RMK A01 T00341020  RH  067%=      5-min Rain = 0
KST3 192244Z 33008KT 03/M02 A3026 RMK A01 T00341019  RH  068%=      5-min Rain = 0
KST3 192245Z 33009KT 03/M02 A3026 RMK A01 T00341019  RH  068%=      5-min Rain = 0
KST3 192246Z 33008KT 03/M02 A3026 RMK A01 T00341019  RH  068%=      5-min Rain = 0
KST3 192247Z 34008KT 03/M02 A3026 RMK A01 T00341019  RH  068%=      5-min Rain = 0
KST3 192248Z 34008KT 03/M02 A3026 RMK A01 T00341019  RH  068%=      5-min Rain = 0
KST3 192249Z 33008KT 03/M02 A3026 RMK A01 T00341020  RH  068%=      5-min Rain = 0
KST3 192250Z 33009KT 03/M02 A3026 RMK A01 T00341020  RH  067%=      5-min Rain = 0
KST3 192251Z 32008KT 03/M02 A3026 RMK A01 T00341021  RH  067%=      5-min Rain = 0
KST3 192252Z 33006KT 03/M02 A3026 RMK A01 T00331022  RH  067%=      5-min Rain = 0
KST3 192253Z 33007KT 03/M02 A3026 RMK A01 T00341021  RH  068%=      5-min Rain = 0
KST3 192254Z 34007KT 04/M02 A3026 RMK A01 T00351020  RH  067%=      5-min Rain = 0
KST3 192255Z 32009KT 04/M02 A3026 RMK A01 T00351020  RH  067%=      5-min Rain = 0
KST3 192256Z 32010KT 04/M02 A3026 RMK A01 T00351021  RH  067%=      5-min Rain = 0
KST3 192257Z 32009KT 03/M02 A3026 RMK A01 T00341021  RH  067%=      5-min Rain = 0
KST3 192258Z 32009KT 03/M02 A3026 RMK A01 T00341021  RH  067%=      5-min Rain = 0
KST3 192259Z 32009KT 03/M02 A3026 RMK A01 T00341021  RH  068%=      5-min Rain = 0
KST3 192300Z 31008KT 03/M02 A3026 RMK A01 T00341020  RH  068%=      5-min Rain = 0
KST3 192301Z 32008KT 03/M02 A3026 RMK A01 T00331021  RH  068%=      5-min Rain = 0
KST3 192302Z 32007KT 03/M02 A3026 RMK A01 T00331020  RH  068%=      5-min Rain = 0
KST3 192303Z 32007KT 03/M02 A3027 RMK A01 T00341020  RH  068%=      5-min Rain = 0
KST3 192304Z 32007KT 03/M02 A3027 RMK A01 T00341020  RH  068%=      5-min Rain = 0
KST3 192305Z 32008KT 03/M02 A3027 RMK A01 T00341020  RH  068%=      5-min Rain = 0
KST3 192306Z 32006KT 03/M02 A3027 RMK A01 T00341020  RH  068%=      5-min Rain = 0
KST3 192307Z 31008KT 03/M02 A3027 RMK A01 T00341019  RH  068%=      5-min Rain = 0
KST3 192308Z 32008KT 03/M02 A3027 RMK A01 T00341019  RH  068%=      5-min Rain = 0
KST3 192309Z 32008KT 03/M02 A3027 RMK A01 T00341020  RH  068%=      5-min Rain = 0
KST3 192310Z 31010KT 03/M02 A3027 RMK A01 T00331020  RH  068%=      5-min Rain = 0
KST3 192311Z 31009KT 03/M02 A3027 RMK A01 T00321020  RH  068%=      5-min Rain = 0
KST3 192312Z 31009KT 03/M02 A3027 RMK A01 T00321021  RH  068%=      5-min Rain = 0
KST3 192313Z 31008KT 03/M02 A3027 RMK A01 T00321021  RH  069%=      5-min Rain = 0
KST3 192314Z 31007KT 03/M02 A3027 RMK A01 T00321020  RH  069%=      5-min Rain = 0
KST3 192315Z 32007KT 03/M02 A3027 RMK A01 T00321020  RH  069%=      5-min Rain = 0
KST3 192316Z 33007KT 03/M02 A3027 RMK A01 T00321019  RH  069%=      5-min Rain = 0
KST3 192317Z 32009KT 03/M02 A3027 RMK A01 T00321020  RH  069%=      5-min Rain = 0
KST3 192318Z 32008KT 03/M02 A3027 RMK A01 T00321020  RH  069%=      5-min Rain = 0
KST3 192319Z 32009KT 03/M02 A3027 RMK A01 T00321020  RH  069%=      5-min Rain = 0
KST3 192320Z 32007KT 03/M02 A3027 RMK A01 T00321020  RH  069%=      5-min Rain = 0
KST3 192321Z 32009KT 03/M02 A3027 RMK A01 T00311020  RH  069%=      5-min Rain = 0
KST3 192322Z 32008KT 03/M02 A3027 RMK A01 T00311020  RH  069%=      5-min Rain = 0
KST3 192323Z 32007KT 03/M02 A3027 RMK A01 T00311020  RH  069%=      5-min Rain = 0
KST3 192324Z 32005KT 03/M02 A3027 RMK A01 T00311020  RH  069%=      5-min Rain = 0
KST3 192325Z 32005KT 03/M02 A3027 RMK A01 T00311020  RH  070%=      5-min Rain = 0
KST3 192326Z 32006KT 03/M02 A3027 RMK A01 T00301020  RH  070%=      5-min Rain = 0
KST3 192327Z 33006KT 03/M02 A3027 RMK A01 T00291020  RH  070%=      5-min Rain = 0
KST3 192328Z 33007KT 03/M02 A3027 RMK A01 T00291020  RH  070%=      5-min Rain = 0
KST3 192329Z 32007KT 03/M02 A3027 RMK A01 T00291019  RH  070%=      5-min Rain = 0
KST3 192330Z 33007KT 03/M02 A3027 RMK A01 T00291019  RH  071%=      5-min Rain = 0
KST3 192331Z 33008KT 03/M02 A3027 RMK A01 T00281020  RH  071%=      5-min Rain = 0
KST3 192332Z 33007KT 03/M02 A3027 RMK A01 T00281019  RH  071%=      5-min Rain = 0
KST3 192333Z 33007KT 03/M02 A3027 RMK A01 T00281020  RH  071%=      5-min Rain = 0
KST3 192334Z 33007KT 03/M02 A3027 RMK A01 T00281020  RH  071%=      5-min Rain = 0
KST3 192335Z 33006KT 03/M02 A3027 RMK A01 T00271020  RH  071%=      5-min Rain = 0
KST3 192336Z 33006KT 03/M02 A3027 RMK A01 T00261020  RH  071%=      5-min Rain = 0
KST3 192337Z 34006KT 03/M02 A3027 RMK A01 T00261020  RH  072%=      5-min Rain = 0
KST3 192338Z 33006KT 03/M02 A3027 RMK A01 T00261020  RH  072%=      5-min Rain = 0
KST3 192339Z 33005KT 03/M02 A3027 RMK A01 T00251020  RH  072%=      5-min Rain = 0
KST3 192340Z 33005KT 03/M02 A3027 RMK A01 T00251021  RH  072%=      5-min Rain = 0
KST3 192341Z 33005KT 02/M02 A3027 RMK A01 T00241021  RH  072%=      5-min Rain = 0
KST3 192342Z 33005KT 02/M02 A3027 RMK A01 T00231021  RH  073%=      5-min Rain = 0
KST3 192343Z 34005KT 02/M02 A3027 RMK A01 T00221022  RH  073%=      5-min Rain = 0
KST3 192344Z 34004KT 02/M02 A3027 RMK A01 T00211022  RH  073%=      5-min Rain = 0
KST3 192345Z 35005KT 02/M02 A3027 RMK A01 T00211021  RH  074%=      5-min Rain = 0
KST3 192346Z 36004KT 02/M02 A3027 RMK A01 T00211021  RH  074%=      5-min Rain = 0
KST3 192347Z 00004KT 02/M02 A3026 RMK A01 T00211021  RH  074%=      5-min Rain = 0
KST3 192348Z 00004KT 02/M02 A3026 RMK A01 T00211021  RH  074%=      5-min Rain = 0
KST3 192349Z 00005KT 02/M02 A3026 RMK A01 T00201022  RH  074%=      5-min Rain = 0
KST3 192350Z 36005KT 02/M02 A3026 RMK A01 T00181024  RH  074%=      5-min Rain = 0
KST3 192351Z 00004KT 02/M02 A3026 RMK A01 T00171023  RH  075%=      5-min Rain = 0
KST3 192352Z 36004KT 02/M02 A3026 RMK A01 T00161023  RH  075%=      5-min Rain = 0
KST3 192353Z 35004KT 02/M02 A3026 RMK A01 T00151023  RH  076%=      5-min Rain = 0
KST3 192354Z 34004KT 02/M02 A3026 RMK A01 T00151022  RH  076%=      5-min Rain = 0
KST3 192355Z 34004KT 01/M02 A3026 RMK A01 T00141023  RH  076%=      5-min Rain = 0
KST3 192356Z 34004KT 01/M02 A3026 RMK A01 T00141023  RH  076%=      5-min Rain = 0
KST3 192357Z 33004KT 01/M02 A3026 RMK A01 T00141022  RH  077%=      5-min Rain = 0
KST3 192358Z 33004KT 01/M02 A3026 RMK A01 T00141022  RH  077%=      5-min Rain = 0
KST3 192359Z 33004KT 01/M02 A3026 RMK A01 T00141023  RH  077%=      5-min Rain = 0
KST3 200000Z 33004KT 01/M02 A3026 RMK A01 T00141023  RH  077%=      5-min Rain = 0
KST3 200001Z 33004KT 01/M02 A3026 RMK A01 T00141022  RH  077%=      5-min Rain = 0
KST3 200002Z 33004KT 01/M02 A3026 RMK A01 T00141022  RH  077%=      5-min Rain = 0
KST3 200003Z 33005KT 01/M02 A3026 RMK A01 T00141022  RH  077%=      5-min Rain = 0
KST3 200004Z 33005KT 01/M02 A3026 RMK A01 T00141022  RH  077%=      5-min Rain = 0
KST3 200005Z 34004KT 01/M02 A3026 RMK A01 T00131023  RH  077%=      5-min Rain = 0
KST3 200006Z 34004KT 01/M02 A3026 RMK A01 T00131024  RH  077%=      5-min Rain = 0
KST3 200007Z 35005KT 01/M02 A3026 RMK A01 T00121024  RH  077%=      5-min Rain = 0
KST3 200008Z 36005KT 01/M02 A3026 RMK A01 T00121024  RH  077%=      5-min Rain = 0
KST3 200009Z 00005KT 01/M02 A3026 RMK A01 T00121024  RH  077%=      5-min Rain = 0
KST3 200010Z 00005KT 01/M03 A3026 RMK A01 T00111026  RH  077%=      5-min Rain = 0
KST3 200011Z 00005KT 01/M03 A3026 RMK A01 T00091027  RH  077%=      5-min Rain = 0
KST3 200012Z 00005KT 01/M03 A3026 RMK A01 T00071027  RH  078%=      5-min Rain = 0
KST3 200013Z 00005KT 01/M03 A3026 RMK A01 T00051027  RH  079%=      5-min Rain = 0
KST3 200014Z 36005KT 01/M03 A3026 RMK A01 T00051027  RH  079%=      5-min Rain = 0
KST3 200015Z 36004KT 00/M03 A3026 RMK A01 T00041027  RH  080%=      5-min Rain = 0
KST3 200016Z 35004KT 00/M03 A3026 RMK A01 T00041026  RH  080%=      5-min Rain = 0
KST3 200017Z 35004KT 01/M03 A3026 RMK A01 T00051025  RH  081%=      5-min Rain = 0
KST3 200018Z 35004KT 01/M02 A3026 RMK A01 T00061024  RH  080%=      5-min Rain = 0
KST3 200019Z 35005KT 01/M02 A3026 RMK A01 T00061024  RH  080%=      5-min Rain = 0
KST3 200020Z 35005KT 01/M02 A3026 RMK A01 T00071024  RH  080%=      5-min Rain = 0
KST3 200021Z 35005KT 01/M02 A3026 RMK A01 T00071024  RH  080%=      5-min Rain = 0
KST3 200022Z 34005KT 01/M02 A3026 RMK A01 T00081023  RH  080%=      5-min Rain = 0
KST3 200023Z 34004KT 01/M02 A3026 RMK A01 T00081023  RH  080%=      5-min Rain = 0
KST3 200024Z 33004KT 01/M02 A3026 RMK A01 T00091023  RH  080%=      5-min Rain = 0
KST3 200025Z 33004KT 01/M02 A3027 RMK A01 T00091022  RH  079%=      5-min Rain = 0
KST3 200026Z 32004KT 01/M02 A3027 RMK A01 T00101022  RH  079%=      5-min Rain = 0
KST3 200027Z 32003KT 01/M02 A3027 RMK A01 T00101022  RH  079%=      5-min Rain = 0
KST3 200028Z 32003KT 01/M02 A3027 RMK A01 T00101022  RH  079%=      5-min Rain = 0
KST3 200029Z 31003KT 01/M02 A3027 RMK A01 T00101023  RH  079%=      5-min Rain = 0
KST3 200030Z 31003KT 01/M03 A3027 RMK A01 T00091025  RH  078%=      5-min Rain = 0
KST3 200031Z 31003KT 01/M03 A3027 RMK A01 T00071025  RH  079%=      5-min Rain = 0
KST3 200032Z 31003KT 01/M03 A3027 RMK A01 T00061025  RH  080%=      5-min Rain = 0
KST3 200033Z 31003KT 01/M03 A3027 RMK A01 T00051025  RH  080%=      5-min Rain = 0
KST3 200034Z 31003KT 01/M02 A3027 RMK A01 T00051024  RH  081%=      5-min Rain = 0
KST3 200035Z 31003KT 01/M02 A3026 RMK A01 T00061023  RH  081%=      5-min Rain = 0
KST3 200036Z 31002KT 01/M02 A3026 RMK A01 T00061022  RH  081%=      5-min Rain = 0
KST3 200037Z 31002KT 01/M02 A3026 RMK A01 T00071022  RH  081%=      5-min Rain = 0
KST3 200038Z 31002KT 01/M02 A3026 RMK A01 T00081021  RH  081%=      5-min Rain = 0
KST3 200039Z 28001KT 01/M02 A3026 RMK A01 T00081022  RH  080%=      5-min Rain = 0
KST3 200040Z 19003KT 00/M03 A3026 RMK A01 T00041029  RH  079%=      5-min Rain = 0
KST3 200041Z 19004KT M00/M03 A3026 RMK A01 T10011032  RH  079%=      5-min Rain = 0
KST3 200042Z 20004KT M00/M03 A3026 RMK A01 T10041034  RH  080%=      5-min Rain = 0
KST3 200043Z 21005KT M01/M03 A3026 RMK A01 T10061034  RH  082%=      5-min Rain = 0
KST3 200044Z 20004KT M01/M03 A3026 RMK A01 T10081034  RH  083%=      5-min Rain = 0
KST3 200045Z 20004KT M01/M03 A3026 RMK A01 T10081031  RH  084%=      5-min Rain = 0
KST3 200046Z 19003KT M01/M03 A3026 RMK A01 T10071029  RH  085%=      5-min Rain = 0
KST3 200047Z 18003KT M01/M03 A3026 RMK A01 T10051027  RH  086%=      5-min Rain = 0
KST3 200048Z 18002KT M00/M02 A3026 RMK A01 T10021023  RH  086%=      5-min Rain = 0
KST3 200049Z 17002KT 00/M02 A3026 RMK A01 T00021019  RH  086%=      5-min Rain = 0
KST3 200050Z 17002KT 00/M02 A3025 RMK A01 T00041019  RH  084%=      5-min Rain = 0
KST3 200051Z 16001KT 01/M02 A3025 RMK A01 T00061020  RH  083%=      5-min Rain = 0
KST3 200052Z 16001KT 01/M02 A3025 RMK A01 T00071020  RH  082%=      5-min Rain = 0
KST3 200053Z 16001KT 01/M02 A3025 RMK A01 T00081019  RH  082%=      5-min Rain = 0
KST3 200054Z 16000KT 01/M02 A3025 RMK A01 T00091019  RH  082%=      5-min Rain = 0
KST3 200055Z 00000KT 01/M02 A3025 RMK A01 T00101018  RH  081%=      5-min Rain = 0
KST3 200056Z 00000KT 01/M02 A3025 RMK A01 T00111019  RH  081%=      5-min Rain = 0
KST3 200057Z 19001KT 01/M02 A3025 RMK A01 T00121018  RH  080%=      5-min Rain = 0
KST3 200058Z 19002KT 01/M02 A3025 RMK A01 T00131018  RH  080%=      5-min Rain = 0
KST3 200059Z 20002KT 01/M02 A3025 RMK A01 T00141018  RH  079%=      5-min Rain = 0
KST3 200100Z 20002KT 01/M02 A3025 RMK A01 T00141018  RH  079%=      5-min Rain = 0
KST3 200101Z 20002KT 02/M02 A3025 RMK A01 T00151018  RH  079%=      5-min Rain = 0
KST3 200102Z 20002KT 02/M02 A3025 RMK A01 T00151018  RH  078%=      5-min Rain = 0
KST3 200103Z 19002KT 02/M02 A3025 RMK A01 T00151019  RH  078%=      5-min Rain = 0
KST3 200104Z 19003KT 02/M02 A3025 RMK A01 T00151019  RH  078%=      5-min Rain = 0
KST3 200105Z 19003KT 02/M02 A3025 RMK A01 T00151019  RH  078%=      5-min Rain = 0
KST3 200106Z 19004KT 01/M02 A3025 RMK A01 T00141021  RH  078%=      5-min Rain = 0
KST3 200107Z 19004KT 01/M02 A3025 RMK A01 T00131022  RH  078%=      5-min Rain = 0
KST3 200108Z 18004KT 01/M02 A3025 RMK A01 T00111023  RH  078%=      5-min Rain = 0
KST3 200109Z 18003KT 01/M02 A3025 RMK A01 T00091023  RH  079%=      5-min Rain = 0
KST3 200110Z 18003KT 01/M02 A3025 RMK A01 T00081023  RH  080%=      5-min Rain = 0
KST3 200111Z 18003KT 01/M02 A3025 RMK A01 T00081022  RH  080%=      5-min Rain = 0
KST3 200112Z 18002KT 01/M02 A3025 RMK A01 T00081022  RH  080%=      5-min Rain = 0
KST3 200113Z 15002KT 01/M02 A3025 RMK A01 T00081022  RH  081%=      5-min Rain = 0
KST3 200114Z 16002KT 01/M02 A3025 RMK A01 T00081022  RH  081%=      5-min Rain = 0
KST3 200115Z 16001KT 01/M02 A3025 RMK A01 T00081022  RH  081%=      5-min Rain = 0
KST3 200116Z 16001KT 01/M02 A3025 RMK A01 T00071022  RH  081%=      5-min Rain = 0
KST3 200117Z 17002KT 01/M02 A3025 RMK A01 T00071022  RH  081%=      5-min Rain = 0
KST3 200118Z 17002KT 01/M02 A3025 RMK A01 T00081021  RH  081%=      5-min Rain = 0
KST3 200119Z 17003KT 01/M02 A3025 RMK A01 T00091020  RH  081%=      5-min Rain = 0
KST3 200120Z 18003KT 01/M02 A3025 RMK A01 T00101019  RH  081%=      5-min Rain = 0
KST3 200121Z 18004KT 01/M02 A3025 RMK A01 T00111020  RH  080%=      5-min Rain = 0
KST3 200122Z 18004KT 01/M02 A3025 RMK A01 T00111021  RH  079%=      5-min Rain = 0
KST3 200123Z 18005KT 01/M02 A3025 RMK A01 T00111023  RH  078%=      5-min Rain = 0
KST3 200124Z 17005KT 01/M02 A3025 RMK A01 T00091024  RH  079%=      5-min Rain = 0
KST3 200125Z 17004KT 01/M03 A3025 RMK A01 T00081025  RH  079%=      5-min Rain = 0
KST3 200126Z 16004KT 01/M03 A3025 RMK A01 T00051026  RH  080%=      5-min Rain = 0
KST3 200127Z 16004KT 00/M03 A3025 RMK A01 T00041026  RH  080%=      5-min Rain = 0
KST3 200128Z 16004KT 00/M03 A3025 RMK A01 T00031026  RH  081%=      5-min Rain = 0
KST3 200129Z 16003KT 00/M03 A3025 RMK A01 T00021025  RH  082%=      5-min Rain = 0
KST3 200130Z 17003KT 00/M02 A3025 RMK A01 T00031024  RH  082%=      5-min Rain = 0
KST3 200131Z 18004KT 00/M02 A3025 RMK A01 T00041022  RH  083%=      5-min Rain = 0
KST3 200132Z 19004KT 01/M02 A3025 RMK A01 T00051022  RH  082%=      5-min Rain = 0
KST3 200133Z 20004KT 01/M02 A3025 RMK A01 T00061023  RH  081%=      5-min Rain = 0
KST3 200134Z 20003KT 01/M02 A3025 RMK A01 T00051023  RH  081%=      5-min Rain = 0
KST3 200135Z 20003KT 01/M02 A3025 RMK A01 T00051024  RH  081%=      5-min Rain = 0
KST3 200136Z 20003KT 00/M03 A3025 RMK A01 T00041025  RH  081%=      5-min Rain = 0
KST3 200137Z 20002KT 00/M03 A3025 RMK A01 T00031025  RH  082%=      5-min Rain = 0
KST3 200138Z 20002KT 00/M02 A3025 RMK A01 T00031024  RH  082%=      5-min Rain = 0
KST3 200139Z 20002KT 00/M02 A3025 RMK A01 T00031024  RH  082%=      5-min Rain = 0
KST3 200140Z 20002KT 00/M02 A3025 RMK A01 T00031024  RH  082%=      5-min Rain = 0
KST3 200141Z 20001KT 00/M02 A3025 RMK A01 T00031023  RH  083%=      5-min Rain = 0
KST3 200142Z 19001KT 00/M02 A3025 RMK A01 T00031023  RH  083%=      5-min Rain = 0
KST3 200143Z 18002KT 00/M02 A3025 RMK A01 T00031022  RH  083%=      5-min Rain = 0
KST3 200144Z 18002KT 00/M02 A3025 RMK A01 T00041021  RH  083%=      5-min Rain = 0
KST3 200145Z 18003KT 01/M02 A3025 RMK A01 T00061019  RH  083%=      5-min Rain = 0
KST3 200146Z 18003KT 01/M02 A3025 RMK A01 T00091019  RH  082%=      5-min Rain = 0
KST3 200147Z 17003KT 01/M02 A3025 RMK A01 T00111019  RH  081%=      5-min Rain = 0
KST3 200148Z 17003KT 01/M02 A3025 RMK A01 T00111020  RH  080%=      5-min Rain = 0
KST3 200149Z 17003KT 01/M02 A3025 RMK A01 T00121020  RH  079%=      5-min Rain = 0
KST3 200150Z 17003KT 01/M02 A3026 RMK A01 T00121021  RH  079%=      5-min Rain = 0
KST3 200151Z 17003KT 01/M02 A3026 RMK A01 T00121021  RH  079%=      5-min Rain = 0
KST3 200152Z 17003KT 01/M02 A3026 RMK A01 T00121021  RH  079%=      5-min Rain = 0
KST3 200153Z 17003KT 01/M02 A3026 RMK A01 T00121020  RH  079%=      5-min Rain = 0
KST3 200154Z 17003KT 01/M02 A3026 RMK A01 T00131020  RH  079%=      5-min Rain = 0
KST3 200155Z 19003KT 01/M02 A3026 RMK A01 T00121021  RH  079%=      5-min Rain = 0
KST3 200156Z 20003KT 01/M02 A3026 RMK A01 T00121021  RH  079%=      5-min Rain = 0
KST3 200157Z 20003KT 01/M02 A3026 RMK A01 T00111022  RH  079%=      5-min Rain = 0
KST3 200158Z 20002KT 01/M02 A3026 RMK A01 T00101022  RH  079%=      5-min Rain = 0
KST3 200159Z 20002KT 01/M02 A3026 RMK A01 T00091022  RH  079%=      5-min Rain = 0
KST3 200200Z 20001KT 01/M02 A3026 RMK A01 T00091022  RH  080%=      5-min Rain = 0
KST3 200201Z 20001KT 01/M02 A3026 RMK A01 T00091022  RH  080%=      5-min Rain = 0
KST3 200202Z 20001KT 01/M02 A3026 RMK A01 T00091022  RH  080%=      5-min Rain = 0
KST3 200203Z 20000KT 01/M02 A3026 RMK A01 T00091022  RH  080%=      5-min Rain = 0
KST3 200204Z 00000KT 01/M02 A3026 RMK A01 T00091022  RH  080%=      5-min Rain = 0
KST3 200205Z 00000KT 01/M02 A3026 RMK A01 T00091021  RH  080%=      5-min Rain = 0
KST3 200206Z 00000KT 01/M02 A3026 RMK A01 T00101020  RH  080%=      5-min Rain = 0
KST3 200207Z 00000KT 01/M02 A3026 RMK A01 T00111020  RH  080%=      5-min Rain = 0
KST3 200208Z 00000KT 01/M02 A3026 RMK A01 T00111021  RH  079%=      5-min Rain = 0
KST3 200209Z 10000KT 01/M03 A3026 RMK A01 T00081027  RH  078%=      5-min Rain = 0
KST3 200210Z 08002KT 00/M03 A3026 RMK A01 T00041028  RH  079%=      5-min Rain = 0
KST3 200211Z 09003KT 00/M03 A3026 RMK A01 T00021026  RH  081%=      5-min Rain = 0
KST3 200212Z 10004KT 00/M03 A3026 RMK A01 T00011027  RH  082%=      5-min Rain = 0
KST3 200213Z 11004KT 00/03 A3026 RMK A01 T00000-26  RH  082%=      5-min Rain = 0
KST3 200214Z 11004KT 00/03 A3026 RMK A01 T00000-25  RH  083%=      5-min Rain = 0
KST3 200215Z 11004KT 00/M02 A3026 RMK A01 T00011024  RH  083%=      5-min Rain = 0
KST3 200216Z 12004KT 00/M02 A3026 RMK A01 T00021023  RH  083%=      5-min Rain = 0
KST3 200217Z 13004KT 00/M02 A3026 RMK A01 T00041021  RH  083%=      5-min Rain = 0
KST3 200218Z 13003KT 01/M02 A3026 RMK A01 T00061021  RH  082%=      5-min Rain = 0
KST3 200219Z 14004KT 01/M02 A3026 RMK A01 T00061022  RH  082%=      5-min Rain = 0
KST3 200220Z 14003KT 01/M02 A3026 RMK A01 T00061022  RH  081%=      5-min Rain = 0
KST3 200221Z 14003KT 01/M02 A3026 RMK A01 T00061022  RH  081%=      5-min Rain = 0
KST3 200222Z 14002KT 01/M02 A3026 RMK A01 T00051023  RH  082%=      5-min Rain = 0
KST3 200223Z 15002KT 01/M02 A3026 RMK A01 T00051023  RH  082%=      5-min Rain = 0
KST3 200224Z 15001KT 00/M02 A3026 RMK A01 T00041024  RH  082%=      5-min Rain = 0
KST3 200225Z 17000KT 00/M02 A3026 RMK A01 T00031024  RH  082%=      5-min Rain = 0
KST3 200226Z 00000KT 00/M02 A3026 RMK A01 T00021024  RH  083%=      5-min Rain = 0
KST3 200227Z 12001KT 00/M02 A3026 RMK A01 T00031024  RH  082%=      5-min Rain = 0
KST3 200228Z 11001KT 00/M03 A3026 RMK A01 T00011026  RH  082%=      5-min Rain = 0
KST3 200229Z 11001KT 00/03 A3026 RMK A01 T00-00-25  RH  083%=      5-min Rain = 0
KST3 200230Z 11002KT 00/02 A3026 RMK A01 T00-00-24  RH  084%=      5-min Rain = 0
KST3 200231Z 10002KT 00/02 A3026 RMK A01 T00000-23  RH  084%=      5-min Rain = 0
KST3 200232Z 09002KT 00/M02 A3026 RMK A01 T00011023  RH  084%=      5-min Rain = 0
KST3 200233Z 11002KT 00/M02 A3026 RMK A01 T00011023  RH  084%=      5-min Rain = 0
KST3 200234Z 12003KT 00/M02 A3026 RMK A01 T00021022  RH  084%=      5-min Rain = 0
KST3 200235Z 13003KT 00/M02 A3026 RMK A01 T00031022  RH  084%=      5-min Rain = 0
KST3 200236Z 13003KT 00/M02 A3026 RMK A01 T00041021  RH  083%=      5-min Rain = 0
KST3 200237Z 13003KT 00/M02 A3026 RMK A01 T00041021  RH  083%=      5-min Rain = 0
KST3 200238Z 14004KT 01/M02 A3026 RMK A01 T00051021  RH  082%=      5-min Rain = 0
KST3 200239Z 14004KT 01/M02 A3026 RMK A01 T00051022  RH  082%=      5-min Rain = 0
KST3 200240Z 14004KT 01/M02 A3026 RMK A01 T00051023  RH  082%=      5-min Rain = 0
KST3 200241Z 14004KT 00/M02 A3026 RMK A01 T00041024  RH  082%=      5-min Rain = 0
KST3 200242Z 14003KT 00/M02 A3026 RMK A01 T00041023  RH  082%=      5-min Rain = 0
KST3 200243Z 14003KT 00/M02 A3026 RMK A01 T00041022  RH  083%=      5-min Rain = 0
KST3 200244Z 14003KT 01/M02 A3026 RMK A01 T00051022  RH  082%=      5-min Rain = 0
KST3 200245Z 14003KT 01/M02 A3026 RMK A01 T00051022  RH  082%=      5-min Rain = 0
KST3 200246Z 14002KT 01/M02 A3026 RMK A01 T00051022  RH  082%=      5-min Rain = 0
KST3 200247Z 14002KT 01/M02 A3026 RMK A01 T00061022  RH  082%=      5-min Rain = 0
KST3 200248Z 14002KT 01/M02 A3026 RMK A01 T00061021  RH  082%=      5-min Rain = 0
KST3 200249Z 14002KT 01/M02 A3026 RMK A01 T00061021  RH  082%=      5-min Rain = 0
KST3 200250Z 13003KT 01/M02 A3025 RMK A01 T00071021  RH  082%=      5-min Rain = 0
KST3 200251Z 13003KT 01/M02 A3025 RMK A01 T00071021  RH  082%=      5-min Rain = 0
KST3 200252Z 12003KT 01/M02 A3025 RMK A01 T00081021  RH  081%=      5-min Rain = 0
KST3 200253Z 12003KT 01/M02 A3025 RMK A01 T00091021  RH  081%=      5-min Rain = 0
KST3 200254Z 11003KT 01/M02 A3025 RMK A01 T00081022  RH  080%=      5-min Rain = 0
KST3 200255Z 11003KT 01/M02 A3025 RMK A01 T00071022  RH  081%=      5-min Rain = 0
KST3 200256Z 11003KT 01/M02 A3025 RMK A01 T00071022  RH  081%=      5-min Rain = 0
KST3 200257Z 11004KT 01/M02 A3025 RMK A01 T00071022  RH  081%=      5-min Rain = 0
KST3 200258Z 11005KT 01/M02 A3024 RMK A01 T00061022  RH  081%=      5-min Rain = 0
KST3 200259Z 11005KT 01/M02 A3024 RMK A01 T00051024  RH  081%=      5-min Rain = 0
KST3 200300Z 11006KT 00/M03 A3024 RMK A01 T00041026  RH  081%=      5-min Rain = 0
KST3 200301Z 11006KT 00/M03 A3024 RMK A01 T00021027  RH  081%=      5-min Rain = 0
KST3 200302Z 11006KT 00/03 A3025 RMK A01 T00-00-28  RH  082%=      5-min Rain = 0
KST3 200303Z 11006KT M00/M03 A3025 RMK A01 T10021028  RH  083%=      5-min Rain = 0
KST3 200304Z 11006KT M00/M03 A3025 RMK A01 T10031027  RH  084%=      5-min Rain = 0
KST3 200305Z 10006KT M00/M03 A3025 RMK A01 T10031027  RH  084%=      5-min Rain = 0
KST3 200306Z 10005KT M00/M03 A3025 RMK A01 T10031026  RH  085%=      5-min Rain = 0
KST3 200307Z 10005KT M00/M03 A3025 RMK A01 T10031026  RH  085%=      5-min Rain = 0
KST3 200308Z 10005KT M00/M03 A3025 RMK A01 T10031025  RH  085%=      5-min Rain = 0
KST3 200309Z 11004KT M00/M03 A3025 RMK A01 T10041025  RH  085%=      5-min Rain = 0
KST3 200310Z 11004KT M00/M02 A3025 RMK A01 T10031024  RH  085%=      5-min Rain = 0
KST3 200311Z 12005KT M00/M02 A3025 RMK A01 T10021023  RH  085%=      5-min Rain = 0
KST3 200312Z 12005KT M00/M02 A3025 RMK A01 T10011023  RH  085%=      5-min Rain = 0
KST3 200313Z 12005KT 00/02 A3025 RMK A01 T00000-22  RH  085%=      5-min Rain = 0
KST3 200314Z 12005KT 00/M02 A3024 RMK A01 T00021022  RH  084%=      5-min Rain = 0
KST3 200315Z 12004KT 00/M02 A3024 RMK A01 T00021022  RH  084%=      5-min Rain = 0
KST3 200316Z 12005KT 00/M02 A3024 RMK A01 T00031023  RH  083%=      5-min Rain = 0
KST3 200317Z 12005KT 00/M02 A3024 RMK A01 T00031023  RH  083%=      5-min Rain = 0
KST3 200318Z 11005KT 00/M02 A3023 RMK A01 T00031023  RH  083%=      5-min Rain = 0
KST3 200319Z 11005KT 00/M02 A3024 RMK A01 T00021023  RH  083%=      5-min Rain = 0
KST3 200320Z 12006KT 00/M02 A3024 RMK A01 T00021023  RH  083%=      5-min Rain = 0
KST3 200321Z 12006KT 00/M02 A3024 RMK A01 T00021024  RH  083%=      5-min Rain = 0
KST3 200322Z 11006KT 00/M02 A3024 RMK A01 T00011024  RH  083%=      5-min Rain = 0
KST3 200323Z 11006KT 00/03 A3024 RMK A01 T00000-25  RH  083%=      5-min Rain = 0
KST3 200324Z 11006KT M00/M03 A3024 RMK A01 T10011026  RH  084%=      5-min Rain = 0
KST3 200325Z 12005KT M00/M03 A3024 RMK A01 T10021026  RH  084%=      5-min Rain = 0
KST3 200326Z 13004KT M00/M03 A3024 RMK A01 T10031026  RH  084%=      5-min Rain = 0
KST3 200327Z 13005KT M00/M03 A3024 RMK A01 T10021025  RH  085%=      5-min Rain = 0
KST3 200328Z 13005KT M00/M02 A3024 RMK A01 T10011024  RH  085%=      5-min Rain = 0
KST3 200329Z 12005KT M00/M03 A3024 RMK A01 T10021026  RH  084%=      5-min Rain = 0
KST3 200330Z 12006KT M00/M03 A3023 RMK A01 T10031026  RH  084%=      5-min Rain = 0
KST3 200331Z 12006KT M00/M03 A3023 RMK A01 T10031026  RH  084%=      5-min Rain = 0
KST3 200332Z 11006KT M00/M03 A3023 RMK A01 T10041027  RH  084%=      5-min Rain = 0
KST3 200333Z 11006KT M00/M03 A3023 RMK A01 T10041027  RH  085%=      5-min Rain = 0
KST3 200334Z 11007KT M01/M03 A3024 RMK A01 T10051028  RH  085%=      5-min Rain = 0
KST3 200335Z 11007KT M01/M03 A3024 RMK A01 T10061029  RH  085%=      5-min Rain = 0
KST3 200336Z 11006KT M01/M03 A3024 RMK A01 T10071030  RH  085%=      5-min Rain = 0
KST3 200337Z 11006KT M01/M03 A3024 RMK A01 T10081029  RH  085%=      5-min Rain = 0
KST3 200338Z 11006KT M01/M03 A3023 RMK A01 T10081029  RH  086%=      5-min Rain = 0
KST3 200339Z 11006KT M01/M03 A3023 RMK A01 T10081029  RH  086%=      5-min Rain = 0
KST3 200340Z 11007KT M01/M03 A3023 RMK A01 T10081030  RH  086%=      5-min Rain = 0
KST3 200341Z 11007KT M01/M03 A3022 RMK A01 T10091031  RH  085%=      5-min Rain = 0
KST3 200342Z 11007KT M01/M03 A3022 RMK A01 T10101031  RH  086%=      5-min Rain = 0
KST3 200343Z 11007KT M01/M03 A3023 RMK A01 T10111032  RH  086%=      5-min Rain = 0
KST3 200344Z 13006KT M01/M03 A3023 RMK A01 T10121032  RH  086%=      5-min Rain = 0
KST3 200345Z 13004KT M01/M03 A3023 RMK A01 T10131032  RH  087%=      5-min Rain = 0
KST3 200346Z 13005KT M01/M03 A3023 RMK A01 T10121030  RH  087%=      5-min Rain = 0
KST3 200347Z 13005KT M01/M03 A3023 RMK A01 T10121031  RH  087%=      5-min Rain = 0
KST3 200348Z 13004KT M01/M03 A3023 RMK A01 T10121032  RH  086%=      5-min Rain = 0
KST3 200349Z 12005KT M01/M03 A3023 RMK A01 T10131033  RH  086%=      5-min Rain = 0
KST3 200350Z 12006KT M01/M03 A3022 RMK A01 T10131033  RH  086%=      5-min Rain = 0
KST3 200351Z 11006KT M01/M03 A3022 RMK A01 T10131032  RH  087%=      5-min Rain = 0
KST3 200352Z 11005KT M01/M03 A3022 RMK A01 T10121030  RH  087%=      5-min Rain = 0
KST3 200353Z 12005KT M01/M03 A3022 RMK A01 T10111031  RH  087%=      5-min Rain = 0
KST3 200354Z 12005KT M01/M03 A3023 RMK A01 T10121032  RH  086%=      5-min Rain = 0
KST3 200355Z 11005KT M01/M03 A3023 RMK A01 T10121032  RH  086%=      5-min Rain = 0
KST3 200356Z 11005KT M01/M03 A3023 RMK A01 T10121032  RH  086%=      5-min Rain = 0
KST3 200357Z 11005KT M01/M03 A3023 RMK A01 T10121032  RH  086%=      5-min Rain = 0
KST3 200358Z 12004KT M01/M03 A3024 RMK A01 T10121032  RH  086%=      5-min Rain = 0
KST3 200359Z 12004KT M01/M03 A3024 RMK A01 T10131032  RH  087%=      5-min Rain = 0
KST3 200400Z 12004KT M01/M03 A3024 RMK A01 T10131032  RH  087%=      5-min Rain = 0
KST3 200401Z 12004KT M01/M03 A3024 RMK A01 T10121032  RH  087%=      5-min Rain = 0
KST3 200402Z 12005KT M01/M03 A3024 RMK A01 T10121032  RH  087%=      5-min Rain = 0
KST3 200403Z 11005KT M01/M03 A3024 RMK A01 T10121032  RH  086%=      5-min Rain = 0
KST3 200404Z 11004KT M01/M03 A3025 RMK A01 T10131032  RH  086%=      5-min Rain = 0
KST3 200405Z 11004KT M01/M03 A3025 RMK A01 T10121032  RH  086%=      5-min Rain = 0
KST3 200406Z 12004KT M01/M03 A3025 RMK A01 T10121032  RH  087%=      5-min Rain = 0
KST3 200407Z 12004KT M01/M03 A3025 RMK A01 T10131032  RH  087%=      5-min Rain = 0
KST3 200408Z 13004KT M01/M03 A3025 RMK A01 T10131032  RH  087%=      5-min Rain = 0
KST3 200409Z 13003KT M01/M03 A3025 RMK A01 T10131032  RH  087%=      5-min Rain = 0
KST3 200410Z 13004KT M01/M03 A3025 RMK A01 T10131032  RH  087%=      5-min Rain = 0
KST3 200411Z 13004KT M01/M03 A3025 RMK A01 T10131032  RH  087%=      5-min Rain = 0
KST3 200412Z 13004KT M01/M03 A3024 RMK A01 T10131032  RH  087%=      5-min Rain = 0
KST3 200413Z 12004KT M01/M03 A3024 RMK A01 T10131032  RH  087%=      5-min Rain = 0
KST3 200414Z 12004KT M01/M03 A3024 RMK A01 T10141033  RH  087%=      5-min Rain = 0
KST3 200415Z 12003KT M01/M03 A3024 RMK A01 T10141033  RH  087%=      5-min Rain = 0
KST3 200416Z 12003KT M01/M03 A3024 RMK A01 T10141033  RH  087%=      5-min Rain = 0
KST3 200417Z 12004KT M01/M03 A3024 RMK A01 T10141032  RH  087%=      5-min Rain = 0
KST3 200418Z 12004KT M01/M03 A3024 RMK A01 T10141032  RH  087%=      5-min Rain = 0
KST3 200419Z 12004KT M01/M03 A3023 RMK A01 T10141033  RH  087%=      5-min Rain = 0
KST3 200420Z 12004KT M01/M03 A3023 RMK A01 T10141033  RH  087%=      5-min Rain = 0
KST3 200421Z 12004KT M01/M03 A3023 RMK A01 T10141033  RH  087%=      5-min Rain = 0
KST3 200422Z 12003KT M01/M03 A3023 RMK A01 T10141032  RH  087%=      5-min Rain = 0
KST3 200423Z 12003KT M01/M03 A3024 RMK A01 T10141033  RH  088%=      5-min Rain = 0
KST3 200424Z 12003KT M02/M03 A3024 RMK A01 T10151033  RH  088%=      5-min Rain = 0
KST3 200425Z 11003KT M02/M03 A3024 RMK A01 T10151032  RH  088%=      5-min Rain = 0
KST3 200426Z 11003KT M01/M03 A3024 RMK A01 T10141032  RH  088%=      5-min Rain = 0
KST3 200427Z 11004KT M01/M03 A3024 RMK A01 T10141032  RH  088%=      5-min Rain = 0
KST3 200428Z 11004KT M02/M03 A3024 RMK A01 T10151033  RH  088%=      5-min Rain = 0
KST3 200429Z 11003KT M02/M03 A3024 RMK A01 T10161033  RH  088%=      5-min Rain = 0
KST3 200430Z 10003KT M02/M03 A3024 RMK A01 T10151033  RH  088%=      5-min Rain = 0
KST3 200431Z 10003KT M02/M03 A3025 RMK A01 T10161033  RH  088%=      5-min Rain = 0
KST3 200432Z 10003KT M02/M03 A3024 RMK A01 T10161033  RH  088%=      5-min Rain = 0
KST3 200433Z 11003KT M02/M03 A3024 RMK A01 T10161032  RH  088%=      5-min Rain = 0
KST3 200434Z 11003KT M02/M03 A3024 RMK A01 T10161032  RH  089%=      5-min Rain = 0
KST3 200435Z 12002KT M02/M03 A3024 RMK A01 T10151032  RH  089%=      5-min Rain = 0
KST3 200436Z 12002KT M02/M03 A3024 RMK A01 T10151031  RH  089%=      5-min Rain = 0
KST3 200437Z 13002KT M02/M03 A3024 RMK A01 T10151031  RH  089%=      5-min Rain = 0
KST3 200438Z 14002KT M02/M03 A3024 RMK A01 T10151031  RH  089%=      5-min Rain = 0
KST3 200439Z 14002KT M01/M03 A3025 RMK A01 T10141031  RH  089%=      5-min Rain = 0
KST3 200440Z 14002KT M01/M03 A3025 RMK A01 T10141030  RH  089%=      5-min Rain = 0
KST3 200441Z 14002KT M01/M03 A3025 RMK A01 T10131029  RH  089%=      5-min Rain = 0
KST3 200442Z 15002KT M01/M03 A3025 RMK A01 T10131029  RH  088%=      5-min Rain = 0
KST3 200443Z 15003KT M01/M03 A3024 RMK A01 T10121029  RH  088%=      5-min Rain = 0
KST3 200444Z 15003KT M01/M03 A3024 RMK A01 T10111029  RH  088%=      5-min Rain = 0
KST3 200445Z 15003KT M01/M03 A3024 RMK A01 T10111029  RH  088%=      5-min Rain = 0
KST3 200446Z 14003KT M01/M03 A3024 RMK A01 T10111030  RH  087%=      5-min Rain = 0
KST3 200447Z 14003KT M01/M03 A3024 RMK A01 T10111030  RH  087%=      5-min Rain = 0
KST3 200448Z 14003KT M01/M03 A3024 RMK A01 T10111030  RH  087%=      5-min Rain = 0
KST3 200449Z 14003KT M01/M03 A3025 RMK A01 T10101029  RH  087%=      5-min Rain = 0
KST3 200450Z 14003KT M01/M03 A3025 RMK A01 T10091029  RH  087%=      5-min Rain = 0
KST3 200451Z 15003KT M01/M03 A3025 RMK A01 T10091029  RH  086%=      5-min Rain = 0
KST3 200452Z 15003KT M01/M03 A3025 RMK A01 T10091030  RH  086%=      5-min Rain = 0
KST3 200453Z 14004KT M01/M03 A3025 RMK A01 T10091029  RH  086%=      5-min Rain = 0
KST3 200454Z 13004KT M01/M03 A3025 RMK A01 T10101030  RH  086%=      5-min Rain = 0
KST3 200455Z 13004KT M01/M03 A3025 RMK A01 T10101031  RH  086%=      5-min Rain = 0
KST3 200456Z 13005KT M01/M03 A3025 RMK A01 T10101030  RH  086%=      5-min Rain = 0
KST3 200457Z 13005KT M01/M03 A3025 RMK A01 T10101030  RH  086%=      5-min Rain = 0
KST3 200458Z 13004KT M01/M03 A3025 RMK A01 T10111031  RH  086%=      5-min Rain = 0
KST3 200459Z 13004KT M01/M03 A3025 RMK A01 T10111030  RH  087%=      5-min Rain = 0
KST3 200500Z 12004KT M01/M03 A3025 RMK A01 T10111030  RH  087%=      5-min Rain = 0
KST3 200501Z 11004KT M01/M03 A3025 RMK A01 T10101030  RH  087%=      5-min Rain = 0
KST3 200502Z 10004KT M01/M03 A3025 RMK A01 T10101031  RH  086%=      5-min Rain = 0
KST3 200503Z 10004KT M01/M03 A3025 RMK A01 T10111032  RH  086%=      5-min Rain = 0
KST3 200504Z 10004KT M01/M03 A3025 RMK A01 T10111032  RH  086%=      5-min Rain = 0
KST3 200505Z 10004KT M01/M03 A3025 RMK A01 T10121033  RH  086%=      5-min Rain = 0
KST3 200506Z 09004KT M01/M03 A3025 RMK A01 T10121033  RH  086%=      5-min Rain = 0
KST3 200507Z 08004KT M01/M03 A3025 RMK A01 T10121033  RH  086%=      5-min Rain = 0
KST3 200508Z 07004KT M01/M03 A3025 RMK A01 T10131034  RH  086%=      5-min Rain = 0
KST3 200509Z 07004KT M01/M03 A3024 RMK A01 T10141034  RH  086%=      5-min Rain = 0
KST3 200510Z 08004KT M02/M04 A3024 RMK A01 T10161035  RH  087%=      5-min Rain = 0
KST3 200511Z 09004KT M02/M04 A3024 RMK A01 T10171036  RH  087%=      5-min Rain = 0
KST3 200512Z 10004KT M02/M03 A3024 RMK A01 T10171034  RH  088%=      5-min Rain = 0
KST3 200513Z 10003KT M02/M03 A3024 RMK A01 T10171033  RH  089%=      5-min Rain = 0
KST3 200514Z 10003KT M02/M03 A3024 RMK A01 T10161032  RH  089%=      5-min Rain = 0
KST3 200515Z 10003KT M02/M03 A3024 RMK A01 T10161032  RH  089%=      5-min Rain = 0
KST3 200516Z 10003KT M02/M03 A3025 RMK A01 T10151032  RH  089%=      5-min Rain = 0
KST3 200517Z 10003KT M02/M03 A3025 RMK A01 T10151031  RH  089%=      5-min Rain = 0
KST3 200518Z 11003KT M02/M03 A3024 RMK A01 T10151031  RH  089%=      5-min Rain = 0
KST3 200519Z 11003KT M01/M03 A3024 RMK A01 T10141031  RH  088%=      5-min Rain = 0
KST3 200520Z 12003KT M01/M03 A3024 RMK A01 T10141031  RH  088%=      5-min Rain = 0
KST3 200521Z 12003KT M01/M03 A3024 RMK A01 T10131030  RH  088%=      5-min Rain = 0
KST3 200522Z 13003KT M01/M03 A3025 RMK A01 T10131030  RH  088%=      5-min Rain = 0
KST3 200523Z 13004KT M01/M03 A3025 RMK A01 T10121030  RH  088%=      5-min Rain = 0
KST3 200524Z 13004KT M01/M03 A3025 RMK A01 T10121030  RH  088%=      5-min Rain = 0
KST3 200525Z 13004KT M01/M03 A3025 RMK A01 T10111030  RH  087%=      5-min Rain = 0
KST3 200526Z 13004KT M01/M03 A3025 RMK A01 T10111030  RH  087%=      5-min Rain = 0
KST3 200527Z 12004KT M01/M03 A3025 RMK A01 T10111030  RH  087%=      5-min Rain = 0
KST3 200528Z 12004KT M01/M03 A3025 RMK A01 T10101030  RH  086%=      5-min Rain = 0
KST3 200529Z 12004KT M01/M03 A3025 RMK A01 T10101030  RH  086%=      5-min Rain = 0
KST3 200530Z 12004KT M01/M03 A3025 RMK A01 T10101030  RH  086%=      5-min Rain = 0
KST3 200531Z 12003KT M01/M03 A3025 RMK A01 T10101030  RH  086%=      5-min Rain = 0
KST3 200532Z 12003KT M01/M03 A3025 RMK A01 T10091030  RH  086%=      5-min Rain = 0
KST3 200533Z 13004KT M01/M03 A3025 RMK A01 T10091030  RH  086%=      5-min Rain = 0
KST3 200534Z 13004KT M01/M03 A3025 RMK A01 T10091031  RH  086%=      5-min Rain = 0
KST3 200535Z 14004KT M01/M03 A3026 RMK A01 T10091031  RH  086%=      5-min Rain = 0
KST3 200536Z 14003KT M01/M03 A3026 RMK A01 T10091030  RH  086%=      5-min Rain = 0
KST3 200537Z 14003KT M01/M03 A3026 RMK A01 T10081029  RH  085%=      5-min Rain = 0
KST3 200538Z 14003KT M01/M03 A3026 RMK A01 T10081030  RH  085%=      5-min Rain = 0
KST3 200539Z 14003KT M01/M03 A3026 RMK A01 T10081030  RH  085%=      5-min Rain = 0
KST3 200540Z 14003KT M01/M03 A3027 RMK A01 T10081030  RH  085%=      5-min Rain = 0
KST3 200541Z 14003KT M01/M03 A3027 RMK A01 T10081029  RH  085%=      5-min Rain = 0
KST3 200542Z 14004KT M01/M03 A3026 RMK A01 T10071029  RH  085%=      5-min Rain = 0
KST3 200543Z 14004KT M01/M03 A3026 RMK A01 T10071029  RH  085%=      5-min Rain = 0
KST3 200544Z 13005KT M01/M03 A3025 RMK A01 T10061029  RH  085%=      5-min Rain = 0
KST3 200545Z 13005KT M01/M03 A3025 RMK A01 T10061030  RH  084%=      5-min Rain = 0
KST3 200546Z 13005KT M01/M03 A3025 RMK A01 T10061031  RH  084%=      5-min Rain = 0
KST3 200547Z 13005KT M01/M03 A3025 RMK A01 T10061031  RH  084%=      5-min Rain = 0
KST3 200548Z 14004KT M01/M03 A3026 RMK A01 T10071031  RH  084%=      5-min Rain = 0
KST3 200549Z 14004KT M01/M03 A3026 RMK A01 T10071031  RH  084%=      5-min Rain = 0
KST3 200550Z 15004KT M01/M03 A3026 RMK A01 T10071031  RH  084%=      5-min Rain = 0
KST3 200551Z 15004KT M01/M03 A3026 RMK A01 T10071030  RH  084%=      5-min Rain = 0
KST3 200552Z 15004KT M01/M03 A3026 RMK A01 T10061030  RH  084%=      5-min Rain = 0
KST3 200553Z 15005KT M01/M03 A3026 RMK A01 T10061030  RH  084%=      5-min Rain = 0
KST3 200554Z 14005KT M01/M03 A3025 RMK A01 T10061030  RH  084%=      5-min Rain = 0
KST3 200555Z 14004KT M01/M03 A3025 RMK A01 T10061031  RH  083%=      5-min Rain = 0
KST3 200556Z 15004KT M01/M03 A3025 RMK A01 T10071032  RH  083%=      5-min Rain = 0
KST3 200557Z 15004KT M01/M03 A3026 RMK A01 T10071031  RH  084%=      5-min Rain = 0
KST3 200558Z 15004KT M01/M03 A3026 RMK A01 T10081031  RH  084%=      5-min Rain = 0
KST3 200559Z 15004KT M01/M03 A3025 RMK A01 T10071030  RH  085%=      5-min Rain = 0

Page generated in 0.1832 seconds.